Observation data for Doole 3WNW on 08/20/2019      Previous  Date       Current Mesonet Observations  Soil Data  Daily Summary Page  Observations in Plain Language
KDO2 200500Z 12005KT 28/17 A3002 RMK A01 T02760166  RH  051%=      5-min Rain = 0
KDO2 200501Z 12005KT 28/17 A3002 RMK A01 T02760167  RH  051%=      5-min Rain = 0
KDO2 200502Z 13005KT 28/17 A3002 RMK A01 T02760167  RH  051%=      5-min Rain = 0
KDO2 200503Z 13005KT 28/17 A3002 RMK A01 T02750167  RH  052%=      5-min Rain = 0
KDO2 200504Z 13005KT 28/17 A3002 RMK A01 T02750167  RH  052%=      5-min Rain = 0
KDO2 200505Z 13005KT 27/17 A3001 RMK A01 T02740168  RH  052%=      5-min Rain = 0
KDO2 200506Z 13005KT 27/17 A3001 RMK A01 T02730168  RH  052%=      5-min Rain = 0
KDO2 200507Z 12005KT 27/17 A3001 RMK A01 T02730167  RH  053%=      5-min Rain = 0
KDO2 200508Z 12005KT 27/17 A3002 RMK A01 T02720167  RH  053%=      5-min Rain = 0
KDO2 200509Z 12006KT 27/17 A3002 RMK A01 T02720167  RH  053%=      5-min Rain = 0
KDO2 200510Z 12006KT 27/17 A3002 RMK A01 T02720167  RH  053%=      5-min Rain = 0
KDO2 200511Z 12006KT 27/17 A3002 RMK A01 T02720167  RH  053%=      5-min Rain = 0
KDO2 200512Z 13006KT 27/17 A3002 RMK A01 T02720167  RH  053%=      5-min Rain = 0
KDO2 200513Z 12006KT 27/17 A3002 RMK A01 T02720167  RH  053%=      5-min Rain = 0
KDO2 200514Z 12005KT 27/17 A3002 RMK A01 T02720167  RH  053%=      5-min Rain = 0
KDO2 200515Z 12005KT 27/17 A3002 RMK A01 T02710168  RH  053%=      5-min Rain = 0
KDO2 200516Z 12005KT 27/17 A3002 RMK A01 T02710168  RH  053%=      5-min Rain = 0
KDO2 200517Z 12005KT 27/17 A3002 RMK A01 T02710168  RH  054%=      5-min Rain = 0
KDO2 200518Z 13005KT 27/17 A3002 RMK A01 T02700169  RH  054%=      5-min Rain = 0
KDO2 200519Z 13005KT 27/17 A3002 RMK A01 T02690169  RH  054%=      5-min Rain = 0
KDO2 200520Z 12005KT 27/17 A3002 RMK A01 T02690169  RH  054%=      5-min Rain = 0
KDO2 200521Z 12005KT 27/17 A3002 RMK A01 T02680169  RH  054%=      5-min Rain = 0
KDO2 200522Z 12005KT 27/17 A3002 RMK A01 T02680169  RH  055%=      5-min Rain = 0
KDO2 200523Z 11005KT 27/17 A3002 RMK A01 T02670169  RH  055%=      5-min Rain = 0
KDO2 200524Z 11005KT 27/17 A3002 RMK A01 T02670169  RH  055%=      5-min Rain = 0
KDO2 200525Z 11005KT 27/17 A3002 RMK A01 T02650168  RH  055%=      5-min Rain = 0
KDO2 200526Z 11005KT 27/17 A3002 RMK A01 T02650168  RH  055%=      5-min Rain = 0
KDO2 200527Z 11005KT 27/17 A3002 RMK A01 T02650168  RH  055%=      5-min Rain = 0
KDO2 200528Z 11005KT 27/17 A3002 RMK A01 T02650167  RH  055%=      5-min Rain = 0
KDO2 200529Z 12005KT 27/17 A3002 RMK A01 T02660168  RH  055%=      5-min Rain = 0
KDO2 200530Z 11005KT 27/17 A3002 RMK A01 T02660168  RH  055%=      5-min Rain = 0
KDO2 200531Z 11005KT 27/17 A3002 RMK A01 T02660168  RH  055%=      5-min Rain = 0
KDO2 200532Z 11005KT 27/17 A3002 RMK A01 T02660169  RH  055%=      5-min Rain = 0
KDO2 200533Z 11005KT 27/17 A3002 RMK A01 T02650169  RH  055%=      5-min Rain = 0
KDO2 200534Z 11005KT 27/17 A3002 RMK A01 T02650169  RH  055%=      5-min Rain = 0
KDO2 200535Z 12005KT 27/17 A3002 RMK A01 T02650169  RH  056%=      5-min Rain = 0
KDO2 200536Z 12005KT 26/17 A3002 RMK A01 T02640169  RH  056%=      5-min Rain = 0
KDO2 200537Z 11005KT 26/17 A3002 RMK A01 T02640169  RH  056%=      5-min Rain = 0
KDO2 200538Z 11005KT 26/17 A3002 RMK A01 T02640169  RH  056%=      5-min Rain = 0
KDO2 200539Z 11006KT 26/17 A3002 RMK A01 T02630169  RH  056%=      5-min Rain = 0
KDO2 200540Z 11006KT 26/17 A3002 RMK A01 T02630169  RH  056%=      5-min Rain = 0
KDO2 200541Z 11006KT 26/17 A3002 RMK A01 T02630168  RH  056%=      5-min Rain = 0
KDO2 200542Z 11006KT 26/17 A3002 RMK A01 T02630168  RH  056%=      5-min Rain = 0
KDO2 200543Z 11006KT 26/17 A3002 RMK A01 T02630168  RH  056%=      5-min Rain = 0
KDO2 200544Z 11006KT 26/17 A3002 RMK A01 T02640168  RH  056%=      5-min Rain = 0
KDO2 200545Z 11006KT 26/17 A3002 RMK A01 T02640168  RH  056%=      5-min Rain = 0
KDO2 200546Z 11006KT 26/17 A3002 RMK A01 T02640168  RH  055%=      5-min Rain = 0
KDO2 200547Z 11006KT 26/17 A3002 RMK A01 T02640167  RH  055%=      5-min Rain = 0
KDO2 200548Z 11006KT 26/17 A3002 RMK A01 T02640167  RH  055%=      5-min Rain = 0
KDO2 200549Z 11006KT 26/17 A3002 RMK A01 T02640167  RH  055%=      5-min Rain = 0
KDO2 200550Z 11006KT 26/17 A3002 RMK A01 T02640167  RH  055%=      5-min Rain = 0
KDO2 200551Z 10006KT 27/17 A3002 RMK A01 T02650167  RH  055%=      5-min Rain = 0
KDO2 200552Z 11006KT 26/17 A3002 RMK A01 T02640167  RH  055%=      5-min Rain = 0
KDO2 200553Z 11006KT 26/17 A3002 RMK A01 T02640167  RH  055%=      5-min Rain = 0
KDO2 200554Z 11006KT 27/17 A3002 RMK A01 T02650167  RH  055%=      5-min Rain = 0
KDO2 200555Z 11007KT 27/17 A3002 RMK A01 T02650167  RH  055%=      5-min Rain = 0
KDO2 200556Z 11006KT 27/17 A3002 RMK A01 T02650167  RH  055%=      5-min Rain = 0
KDO2 200557Z 11006KT 27/17 A3002 RMK A01 T02650167  RH  055%=      5-min Rain = 0
KDO2 200558Z 11006KT 27/17 A3002 RMK A01 T02660167  RH  055%=      5-min Rain = 0
KDO2 200559Z 11006KT 27/17 A3002 RMK A01 T02660167  RH  055%=      5-min Rain = 0
KDO2 200600Z 11006KT 27/17 A3002 RMK A01 T02660167  RH  055%=      5-min Rain = 0
KDO2 200601Z 11006KT 27/17 A3002 RMK A01 T02660167  RH  055%=      5-min Rain = 0
KDO2 200602Z 11006KT 27/17 A3002 RMK A01 T02660167  RH  055%=      5-min Rain = 0
KDO2 200603Z 12006KT 27/17 A3002 RMK A01 T02650167  RH  055%=      5-min Rain = 0
KDO2 200604Z 12006KT 27/17 A3002 RMK A01 T02650167  RH  055%=      5-min Rain = 0
KDO2 200605Z 12006KT 27/17 A3002 RMK A01 T02650168  RH  055%=      5-min Rain = 0
KDO2 200606Z 12006KT 27/17 A3002 RMK A01 T02650168  RH  055%=      5-min Rain = 0
KDO2 200607Z 12006KT 27/17 A3002 RMK A01 T02650168  RH  055%=      5-min Rain = 0
KDO2 200608Z 12006KT 26/17 A3002 RMK A01 T02640168  RH  055%=      5-min Rain = 0
KDO2 200609Z 11006KT 26/17 A3002 RMK A01 T02640168  RH  056%=      5-min Rain = 0
KDO2 200610Z 11006KT 26/17 A3002 RMK A01 T02630168  RH  056%=      5-min Rain = 0
KDO2 200611Z 11005KT 26/17 A3002 RMK A01 T02630168  RH  056%=      5-min Rain = 0
KDO2 200612Z 11006KT 26/17 A3002 RMK A01 T02620168  RH  056%=      5-min Rain = 0
KDO2 200613Z 12006KT 26/17 A3002 RMK A01 T02620168  RH  056%=      5-min Rain = 0
KDO2 200614Z 12006KT 26/17 A3002 RMK A01 T02610168  RH  056%=      5-min Rain = 0
KDO2 200615Z 12006KT 26/17 A3002 RMK A01 T02610168  RH  056%=      5-min Rain = 0
KDO2 200616Z 13005KT 26/17 A3002 RMK A01 T02610168  RH  057%=      5-min Rain = 0
KDO2 200617Z 13005KT 26/17 A3002 RMK A01 T02610169  RH  057%=      5-min Rain = 0
KDO2 200618Z 13005KT 26/17 A3002 RMK A01 T02600169  RH  057%=      5-min Rain = 0
KDO2 200619Z 13005KT 26/17 A3002 RMK A01 T02600169  RH  057%=      5-min Rain = 0
KDO2 200620Z 13005KT 26/17 A3002 RMK A01 T02600169  RH  057%=      5-min Rain = 0
KDO2 200621Z 12005KT 26/17 A3002 RMK A01 T02590169  RH  057%=      5-min Rain = 0
KDO2 200622Z 12004KT 26/17 A3002 RMK A01 T02590170  RH  058%=      5-min Rain = 0
KDO2 200623Z 12004KT 26/17 A3002 RMK A01 T02580169  RH  058%=      5-min Rain = 0
KDO2 200624Z 12004KT 26/17 A3002 RMK A01 T02580169  RH  058%=      5-min Rain = 0
KDO2 200625Z 13004KT 26/17 A3002 RMK A01 T02570170  RH  058%=      5-min Rain = 0
KDO2 200626Z 13003KT 26/17 A3002 RMK A01 T02570171  RH  059%=      5-min Rain = 0
KDO2 200627Z 13003KT 26/17 A3002 RMK A01 T02550171  RH  060%=      5-min Rain = 0
KDO2 200628Z 13003KT 25/17 A3002 RMK A01 T02530171  RH  060%=      5-min Rain = 0
KDO2 200629Z 13003KT 25/17 A3002 RMK A01 T02510172  RH  061%=      5-min Rain = 0
KDO2 200630Z 14002KT 25/17 A3002 RMK A01 T02500172  RH  062%=      5-min Rain = 0
KDO2 200631Z 17002KT 25/17 A3002 RMK A01 T02480171  RH  062%=      5-min Rain = 0
KDO2 200632Z 17002KT 25/17 A3002 RMK A01 T02470169  RH  062%=      5-min Rain = 0
KDO2 200633Z 15001KT 25/17 A3002 RMK A01 T02460170  RH  062%=      5-min Rain = 0
KDO2 200634Z 13002KT 25/17 A3002 RMK A01 T02460169  RH  062%=      5-min Rain = 0
KDO2 200635Z 12002KT 25/17 A3002 RMK A01 T02460169  RH  062%=      5-min Rain = 0
KDO2 200636Z 11002KT 25/17 A3002 RMK A01 T02460169  RH  062%=      5-min Rain = 0
KDO2 200637Z 11002KT 25/17 A3002 RMK A01 T02460169  RH  062%=      5-min Rain = 0
KDO2 200638Z 12002KT 25/17 A3002 RMK A01 T02460169  RH  062%=      5-min Rain = 0
KDO2 200639Z 13002KT 25/17 A3002 RMK A01 T02460168  RH  062%=      5-min Rain = 0
KDO2 200640Z 13002KT 25/17 A3001 RMK A01 T02460168  RH  062%=      5-min Rain = 0
KDO2 200641Z 13002KT 25/17 A3001 RMK A01 T02470169  RH  062%=      5-min Rain = 0
KDO2 200642Z 15002KT 25/17 A3001 RMK A01 T02470168  RH  061%=      5-min Rain = 0
KDO2 200643Z 15002KT 25/17 A3001 RMK A01 T02470168  RH  061%=      5-min Rain = 0
KDO2 200644Z 15002KT 25/17 A3001 RMK A01 T02470168  RH  061%=      5-min Rain = 0
KDO2 200645Z 15002KT 25/17 A3001 RMK A01 T02480169  RH  062%=      5-min Rain = 0
KDO2 200646Z 15002KT 25/17 A3001 RMK A01 T02470169  RH  062%=      5-min Rain = 0
KDO2 200647Z 15002KT 25/17 A3001 RMK A01 T02470169  RH  062%=      5-min Rain = 0
KDO2 200648Z 15001KT 25/17 A3001 RMK A01 T02470169  RH  062%=      5-min Rain = 0
KDO2 200649Z 13000KT 25/17 A3001 RMK A01 T02460168  RH  062%=      5-min Rain = 0
KDO2 200650Z 08002KT 25/17 A3001 RMK A01 T02460168  RH  062%=      5-min Rain = 0
KDO2 200651Z 08002KT 25/17 A3001 RMK A01 T02460167  RH  061%=      5-min Rain = 0
KDO2 200652Z 08001KT 25/17 A3001 RMK A01 T02460167  RH  061%=      5-min Rain = 0
KDO2 200653Z 09001KT 25/17 A3001 RMK A01 T02470167  RH  061%=      5-min Rain = 0
KDO2 200654Z 10001KT 25/17 A3001 RMK A01 T02460167  RH  061%=      5-min Rain = 0
KDO2 200655Z 10000KT 25/17 A3001 RMK A01 T02450168  RH  062%=      5-min Rain = 0
KDO2 200656Z 00000KT 25/17 A3001 RMK A01 T02450168  RH  062%=      5-min Rain = 0
KDO2 200657Z 00000KT 25/17 A3001 RMK A01 T02450167  RH  062%=      5-min Rain = 0
KDO2 200658Z 10000KT 25/17 A3001 RMK A01 T02450167  RH  062%=      5-min Rain = 0
KDO2 200659Z 10000KT 25/17 A3001 RMK A01 T02450167  RH  062%=      5-min Rain = 0
KDO2 200700Z 10000KT 25/17 A3001 RMK A01 T02450167  RH  062%=      5-min Rain = 0
KDO2 200701Z 10000KT 25/17 A3001 RMK A01 T02450168  RH  062%=      5-min Rain = 0
KDO2 200702Z 00000KT 25/17 A3001 RMK A01 T02450169  RH  063%=      5-min Rain = 0
KDO2 200703Z 00000KT 24/17 A3001 RMK A01 T02440170  RH  063%=      5-min Rain = 0
KDO2 200704Z 00000KT 24/17 A3001 RMK A01 T02420169  RH  064%=      5-min Rain = 0
KDO2 200705Z 00000KT 24/17 A3001 RMK A01 T02400169  RH  065%=      5-min Rain = 0
KDO2 200706Z 00000KT 24/17 A3001 RMK A01 T02380169  RH  065%=      5-min Rain = 0
KDO2 200707Z 00000KT 24/17 A3001 RMK A01 T02360168  RH  066%=      5-min Rain = 0
KDO2 200708Z 00000KT 24/17 A3001 RMK A01 T02350168  RH  066%=      5-min Rain = 0
KDO2 200709Z 00000KT 24/17 A3001 RMK A01 T02350168  RH  066%=      5-min Rain = 0
KDO2 200710Z 00000KT 24/17 A3001 RMK A01 T02350168  RH  066%=      5-min Rain = 0
KDO2 200711Z 00000KT 24/17 A3001 RMK A01 T02350168  RH  066%=      5-min Rain = 0
KDO2 200712Z 10000KT 23/17 A3001 RMK A01 T02340168  RH  066%=      5-min Rain = 0
KDO2 200713Z 00000KT 24/17 A3001 RMK A01 T02350169  RH  066%=      5-min Rain = 0
KDO2 200714Z 00000KT 23/17 A3001 RMK A01 T02340169  RH  066%=      5-min Rain = 0
KDO2 200715Z 00000KT 24/17 A3001 RMK A01 T02350168  RH  066%=      5-min Rain = 0
KDO2 200716Z 00000KT 24/17 A3001 RMK A01 T02350169  RH  066%=      5-min Rain = 0
KDO2 200717Z 00000KT 24/17 A3001 RMK A01 T02350171  RH  067%=      5-min Rain = 0
KDO2 200718Z 00000KT 24/17 A3001 RMK A01 T02350171  RH  067%=      5-min Rain = 0
KDO2 200719Z 00000KT 24/17 A3001 RMK A01 T02350170  RH  067%=      5-min Rain = 0
KDO2 200720Z 10000KT 23/17 A3001 RMK A01 T02340170  RH  067%=      5-min Rain = 0
KDO2 200721Z 10000KT 23/17 A3001 RMK A01 T02340169  RH  067%=      5-min Rain = 0
KDO2 200722Z 23000KT 23/17 A3001 RMK A01 T02330169  RH  067%=      5-min Rain = 0
KDO2 200723Z 24001KT 23/17 A3001 RMK A01 T02330169  RH  067%=      5-min Rain = 0
KDO2 200724Z 24001KT 23/17 A3001 RMK A01 T02320169  RH  067%=      5-min Rain = 0
KDO2 200725Z 22001KT 23/17 A3001 RMK A01 T02320169  RH  068%=      5-min Rain = 0
KDO2 200726Z 22001KT 23/17 A3001 RMK A01 T02320169  RH  068%=      5-min Rain = 0
KDO2 200727Z 22002KT 23/17 A3001 RMK A01 T02320169  RH  068%=      5-min Rain = 0
KDO2 200728Z 22002KT 23/17 A3001 RMK A01 T02320169  RH  068%=      5-min Rain = 0
KDO2 200729Z 23002KT 23/17 A3001 RMK A01 T02330170  RH  068%=      5-min Rain = 0
KDO2 200730Z 22002KT 23/17 A3001 RMK A01 T02320169  RH  068%=      5-min Rain = 0
KDO2 200731Z 23003KT 23/17 A3001 RMK A01 T02320169  RH  068%=      5-min Rain = 0
KDO2 200732Z 22003KT 23/17 A3001 RMK A01 T02320169  RH  068%=      5-min Rain = 0
KDO2 200733Z 22002KT 23/17 A3001 RMK A01 T02320169  RH  068%=      5-min Rain = 0
KDO2 200734Z 21002KT 23/17 A3001 RMK A01 T02320169  RH  068%=      5-min Rain = 0
KDO2 200735Z 21003KT 23/17 A3002 RMK A01 T02320169  RH  068%=      5-min Rain = 0
KDO2 200736Z 20003KT 23/17 A3002 RMK A01 T02320169  RH  068%=      5-min Rain = 0
KDO2 200737Z 20003KT 23/17 A3002 RMK A01 T02320169  RH  068%=      5-min Rain = 0
KDO2 200738Z 21003KT 23/17 A3002 RMK A01 T02320169  RH  068%=      5-min Rain = 0
KDO2 200739Z 19002KT 23/17 A3001 RMK A01 T02320169  RH  068%=      5-min Rain = 0
KDO2 200740Z 17002KT 23/17 A3001 RMK A01 T02320169  RH  068%=      5-min Rain = 0
KDO2 200741Z 17002KT 23/17 A3001 RMK A01 T02320169  RH  068%=      5-min Rain = 0
KDO2 200742Z 17002KT 23/17 A3001 RMK A01 T02320169  RH  068%=      5-min Rain = 0
KDO2 200743Z 16002KT 23/17 A3001 RMK A01 T02320168  RH  067%=      5-min Rain = 0
KDO2 200744Z 16002KT 23/17 A3001 RMK A01 T02330168  RH  067%=      5-min Rain = 0
KDO2 200745Z 16002KT 23/17 A3001 RMK A01 T02330169  RH  067%=      5-min Rain = 0
KDO2 200746Z 16003KT 23/17 A3001 RMK A01 T02340169  RH  067%=      5-min Rain = 0
KDO2 200747Z 16003KT 23/17 A3001 RMK A01 T02340169  RH  067%=      5-min Rain = 0
KDO2 200748Z 16003KT 24/17 A3001 RMK A01 T02350169  RH  066%=      5-min Rain = 0
KDO2 200749Z 15002KT 24/17 A3001 RMK A01 T02350168  RH  066%=      5-min Rain = 0
KDO2 200750Z 15002KT 24/17 A3001 RMK A01 T02350169  RH  066%=      5-min Rain = 0
KDO2 200751Z 14003KT 24/17 A3001 RMK A01 T02350169  RH  066%=      5-min Rain = 0
KDO2 200752Z 14003KT 23/17 A3001 RMK A01 T02340168  RH  067%=      5-min Rain = 0
KDO2 200753Z 15003KT 23/17 A3001 RMK A01 T02320168  RH  067%=      5-min Rain = 0
KDO2 200754Z 16003KT 23/17 A3001 RMK A01 T02310168  RH  068%=      5-min Rain = 0
KDO2 200755Z 16004KT 23/17 A3001 RMK A01 T02320170  RH  068%=      5-min Rain = 0
KDO2 200756Z 16004KT 24/17 A3001 RMK A01 T02360171  RH  067%=      5-min Rain = 0
KDO2 200757Z 15005KT 24/17 A3001 RMK A01 T02390171  RH  066%=      5-min Rain = 0
KDO2 200758Z 15005KT 24/17 A3001 RMK A01 T02400171  RH  065%=      5-min Rain = 0
KDO2 200759Z 15005KT 24/17 A3001 RMK A01 T02410171  RH  065%=      5-min Rain = 0
KDO2 200800Z 16006KT 24/17 A3001 RMK A01 T02420173  RH  065%=      5-min Rain = 0
KDO2 200801Z 16006KT 24/17 A3001 RMK A01 T02430173  RH  065%=      5-min Rain = 0
KDO2 200802Z 16006KT 24/17 A3001 RMK A01 T02440173  RH  065%=      5-min Rain = 0
KDO2 200803Z 16006KT 25/17 A3001 RMK A01 T02450173  RH  064%=      5-min Rain = 0
KDO2 200804Z 16005KT 25/17 A3001 RMK A01 T02460173  RH  064%=      5-min Rain = 0
KDO2 200805Z 15005KT 25/17 A3001 RMK A01 T02470173  RH  064%=      5-min Rain = 0
KDO2 200806Z 15006KT 25/17 A3001 RMK A01 T02480174  RH  063%=      5-min Rain = 0
KDO2 200807Z 15006KT 25/17 A3001 RMK A01 T02480174  RH  063%=      5-min Rain = 0
KDO2 200808Z 16006KT 25/17 A3001 RMK A01 T02490174  RH  063%=      5-min Rain = 0
KDO2 200809Z 16007KT 25/18 A3001 RMK A01 T02500175  RH  063%=      5-min Rain = 0
KDO2 200810Z 16008KT 25/18 A3001 RMK A01 T02520176  RH  063%=      5-min Rain = 0
KDO2 200811Z 15007KT 25/18 A3001 RMK A01 T02540177  RH  062%=      5-min Rain = 0
KDO2 200812Z 15007KT 26/18 A3001 RMK A01 T02560176  RH  061%=      5-min Rain = 0
KDO2 200813Z 16008KT 26/18 A3001 RMK A01 T02570177  RH  061%=      5-min Rain = 0
KDO2 200814Z 16007KT 26/18 A3001 RMK A01 T02570177  RH  061%=      5-min Rain = 0
KDO2 200815Z 16007KT 26/18 A3001 RMK A01 T02580177  RH  061%=      5-min Rain = 0
KDO2 200816Z 16007KT 26/18 A3001 RMK A01 T02580178  RH  061%=      5-min Rain = 0
KDO2 200817Z 15007KT 26/18 A3001 RMK A01 T02590178  RH  061%=      5-min Rain = 0
KDO2 200818Z 15007KT 26/18 A3001 RMK A01 T02590178  RH  061%=      5-min Rain = 0
KDO2 200819Z 15007KT 26/18 A3001 RMK A01 T02590178  RH  061%=      5-min Rain = 0
KDO2 200820Z 15007KT 26/18 A3001 RMK A01 T02590178  RH  061%=      5-min Rain = 0
KDO2 200821Z 15007KT 26/18 A3001 RMK A01 T02600179  RH  061%=      5-min Rain = 0
KDO2 200822Z 15007KT 26/18 A3001 RMK A01 T02600179  RH  061%=      5-min Rain = 0
KDO2 200823Z 15008KT 26/18 A3001 RMK A01 T02600179  RH  061%=      5-min Rain = 0
KDO2 200824Z 15008KT 26/18 A3001 RMK A01 T02600179  RH  061%=      5-min Rain = 0
KDO2 200825Z 15008KT 26/18 A3001 RMK A01 T02600180  RH  061%=      5-min Rain = 0
KDO2 200826Z 16007KT 26/18 A30 RMK A01 T02610180  RH  061%=      5-min Rain = 0
KDO2 200827Z 15008KT 26/18 A30 RMK A01 T02610180  RH  061%=      5-min Rain = 0
KDO2 200828Z 16009KT 26/18 A30 RMK A01 T02620180  RH  061%=      5-min Rain = 0
KDO2 200829Z 15008KT 26/18 A30 RMK A01 T02630180  RH  060%=      5-min Rain = 0
KDO2 200830Z 15008KT 26/18 A30 RMK A01 T02630180  RH  060%=      5-min Rain = 0
KDO2 200831Z 16007KT 26/18 A30 RMK A01 T02630180  RH  060%=      5-min Rain = 0
KDO2 200832Z 16007KT 26/18 A30 RMK A01 T02630180  RH  060%=      5-min Rain = 0
KDO2 200833Z 15007KT 26/18 A30 RMK A01 T02630181  RH  061%=      5-min Rain = 0
KDO2 200834Z 16008KT 26/18 A30 RMK A01 T02620181  RH  061%=      5-min Rain = 0
KDO2 200835Z 15008KT 26/18 A30 RMK A01 T02620181  RH  061%=      5-min Rain = 0
KDO2 200836Z 16008KT 26/18 A3001 RMK A01 T02620181  RH  061%=      5-min Rain = 0
KDO2 200837Z 15008KT 26/18 A3001 RMK A01 T02620181  RH  061%=      5-min Rain = 0
KDO2 200838Z 15008KT 26/18 A30 RMK A01 T02610181  RH  061%=      5-min Rain = 0
KDO2 200839Z 16007KT 26/18 A30 RMK A01 T02620181  RH  061%=      5-min Rain = 0
KDO2 200840Z 16007KT 26/18 A3001 RMK A01 T02620182  RH  061%=      5-min Rain = 0
KDO2 200841Z 16007KT 26/18 A3001 RMK A01 T02610181  RH  061%=      5-min Rain = 0
KDO2 200842Z 15007KT 26/18 A3001 RMK A01 T02610181  RH  062%=      5-min Rain = 0
KDO2 200843Z 15007KT 26/18 A3001 RMK A01 T02600181  RH  062%=      5-min Rain = 0
KDO2 200844Z 16008KT 26/18 A3001 RMK A01 T02600181  RH  062%=      5-min Rain = 0
KDO2 200845Z 16007KT 26/18 A3001 RMK A01 T02600181  RH  062%=      5-min Rain = 0
KDO2 200846Z 16008KT 26/18 A3001 RMK A01 T02600181  RH  062%=      5-min Rain = 0
KDO2 200847Z 16007KT 26/18 A3001 RMK A01 T02600182  RH  062%=      5-min Rain = 0
KDO2 200848Z 16008KT 26/18 A3001 RMK A01 T02600182  RH  062%=      5-min Rain = 0
KDO2 200849Z 16007KT 26/18 A3001 RMK A01 T02600182  RH  062%=      5-min Rain = 0
KDO2 200850Z 16008KT 26/18 A3001 RMK A01 T02600182  RH  062%=      5-min Rain = 0
KDO2 200851Z 16007KT 26/18 A3001 RMK A01 T02600182  RH  062%=      5-min Rain = 0
KDO2 200852Z 16008KT 26/18 A3001 RMK A01 T02600182  RH  062%=      5-min Rain = 0
KDO2 200853Z 16007KT 26/18 A3001 RMK A01 T02590182  RH  062%=      5-min Rain = 0
KDO2 200854Z 16006KT 26/18 A3001 RMK A01 T02590182  RH  062%=      5-min Rain = 0
KDO2 200855Z 16007KT 26/18 A3001 RMK A01 T02590182  RH  063%=      5-min Rain = 0
KDO2 200856Z 16007KT 26/18 A3001 RMK A01 T02590183  RH  063%=      5-min Rain = 0
KDO2 200857Z 16008KT 26/18 A3001 RMK A01 T02590183  RH  063%=      5-min Rain = 0
KDO2 200858Z 16007KT 26/18 A3001 RMK A01 T02590183  RH  063%=      5-min Rain = 0
KDO2 200859Z 16008KT 26/18 A3001 RMK A01 T02590183  RH  063%=      5-min Rain = 0
KDO2 200900Z 17006KT 26/18 A3001 RMK A01 T02590184  RH  063%=      5-min Rain = 0
KDO2 200901Z 17006KT 26/18 A3001 RMK A01 T02590184  RH  063%=      5-min Rain = 0
KDO2 200902Z 16007KT 26/18 A3001 RMK A01 T02590184  RH  063%=      5-min Rain = 0
KDO2 200903Z 16007KT 26/19 A3001 RMK A01 T02590185  RH  064%=      5-min Rain = 0
KDO2 200904Z 16006KT 26/19 A3001 RMK A01 T02580185  RH  064%=      5-min Rain = 0
KDO2 200905Z 16006KT 26/19 A3001 RMK A01 T02580185  RH  064%=      5-min Rain = 0
KDO2 200906Z 17007KT 26/19 A3001 RMK A01 T02570186  RH  065%=      5-min Rain = 0
KDO2 200907Z 16006KT 26/19 A3001 RMK A01 T02570186  RH  065%=      5-min Rain = 0
KDO2 200908Z 16007KT 26/19 A3001 RMK A01 T02570186  RH  065%=      5-min Rain = 0
KDO2 200909Z 17007KT 26/19 A3001 RMK A01 T02570186  RH  065%=      5-min Rain = 0
KDO2 200910Z 16006KT 26/19 A3001 RMK A01 T02570187  RH  065%=      5-min Rain = 0
KDO2 200911Z 16007KT 26/19 A3001 RMK A01 T02580188  RH  065%=      5-min Rain = 0
KDO2 200912Z 16006KT 26/19 A3001 RMK A01 T02580188  RH  065%=      5-min Rain = 0
KDO2 200913Z 17006KT 26/19 A3001 RMK A01 T02580188  RH  065%=      5-min Rain = 0
KDO2 200914Z 17006KT 26/19 A3001 RMK A01 T02580188  RH  065%=      5-min Rain = 0
KDO2 200915Z 18006KT 26/19 A3001 RMK A01 T02570188  RH  065%=      5-min Rain = 0
KDO2 200916Z 17006KT 26/19 A3001 RMK A01 T02570188  RH  066%=      5-min Rain = 0
KDO2 200917Z 17006KT 26/19 A3001 RMK A01 T02570189  RH  066%=      5-min Rain = 0
KDO2 200918Z 17006KT 26/19 A3001 RMK A01 T02570189  RH  066%=      5-min Rain = 0
KDO2 200919Z 18006KT 26/19 A3001 RMK A01 T02570189  RH  066%=      5-min Rain = 0
KDO2 200920Z 18007KT 26/19 A3001 RMK A01 T02570190  RH  066%=      5-min Rain = 0
KDO2 200921Z 18007KT 26/19 A3001 RMK A01 T02570190  RH  067%=      5-min Rain = 0
KDO2 200922Z 18006KT 26/19 A3001 RMK A01 T02570190  RH  067%=      5-min Rain = 0
KDO2 200923Z 18005KT 26/19 A3001 RMK A01 T02570191  RH  067%=      5-min Rain = 0
KDO2 200924Z 18006KT 26/19 A3001 RMK A01 T02570191  RH  067%=      5-min Rain = 0
KDO2 200925Z 18006KT 26/19 A3001 RMK A01 T02560191  RH  067%=      5-min Rain = 0
KDO2 200926Z 18006KT 26/19 A3001 RMK A01 T02560192  RH  067%=      5-min Rain = 0
KDO2 200927Z 17005KT 26/19 A3001 RMK A01 T02560192  RH  068%=      5-min Rain = 0
KDO2 200928Z 18005KT 26/19 A3001 RMK A01 T02560192  RH  068%=      5-min Rain = 0
KDO2 200929Z 18005KT 26/19 A3001 RMK A01 T02550192  RH  068%=      5-min Rain = 0
KDO2 200930Z 18005KT 26/19 A3001 RMK A01 T02550192  RH  068%=      5-min Rain = 0
KDO2 200931Z 18005KT 26/19 A3001 RMK A01 T02550192  RH  068%=      5-min Rain = 0
KDO2 200932Z 18005KT 26/19 A3001 RMK A01 T02550193  RH  069%=      5-min Rain = 0
KDO2 200933Z 18005KT 25/19 A3001 RMK A01 T02540193  RH  069%=      5-min Rain = 0
KDO2 200934Z 18004KT 25/19 A3001 RMK A01 T02540194  RH  069%=      5-min Rain = 0
KDO2 200935Z 18005KT 25/19 A3001 RMK A01 T02540193  RH  069%=      5-min Rain = 0
KDO2 200936Z 17005KT 25/19 A3001 RMK A01 T02530194  RH  070%=      5-min Rain = 0
KDO2 200937Z 17005KT 25/19 A3001 RMK A01 T02530194  RH  070%=      5-min Rain = 0
KDO2 200938Z 17005KT 25/20 A3001 RMK A01 T02530195  RH  070%=      5-min Rain = 0
KDO2 200939Z 17006KT 25/19 A3001 RMK A01 T02520194  RH  070%=      5-min Rain = 0
KDO2 200940Z 17005KT 25/20 A3001 RMK A01 T02520195  RH  070%=      5-min Rain = 0
KDO2 200941Z 18005KT 25/20 A3001 RMK A01 T02520195  RH  070%=      5-min Rain = 0
KDO2 200942Z 17005KT 25/20 A3001 RMK A01 T02520195  RH  070%=      5-min Rain = 0
KDO2 200943Z 17005KT 25/20 A3001 RMK A01 T02520195  RH  070%=      5-min Rain = 0
KDO2 200944Z 18005KT 25/20 A3001 RMK A01 T02520195  RH  071%=      5-min Rain = 0
KDO2 200945Z 17005KT 25/20 A3001 RMK A01 T02520195  RH  071%=      5-min Rain = 0
KDO2 200946Z 17005KT 25/20 A3001 RMK A01 T02520195  RH  071%=      5-min Rain = 0
KDO2 200947Z 18005KT 25/20 A3001 RMK A01 T02520195  RH  071%=      5-min Rain = 0
KDO2 200948Z 18005KT 25/20 A3001 RMK A01 T02510195  RH  071%=      5-min Rain = 0
KDO2 200949Z 18004KT 25/20 A3001 RMK A01 T02510195  RH  071%=      5-min Rain = 0
KDO2 200950Z 18004KT 25/20 A3001 RMK A01 T02500195  RH  071%=      5-min Rain = 0
KDO2 200951Z 18004KT 25/20 A3001 RMK A01 T02500195  RH  072%=      5-min Rain = 0
KDO2 200952Z 17004KT 25/20 A3001 RMK A01 T02490195  RH  072%=      5-min Rain = 0
KDO2 200953Z 17004KT 25/20 A3001 RMK A01 T02490195  RH  072%=      5-min Rain = 0
KDO2 200954Z 17004KT 25/20 A3001 RMK A01 T02490195  RH  072%=      5-min Rain = 0
KDO2 200955Z 17004KT 25/20 A3001 RMK A01 T02480195  RH  072%=      5-min Rain = 0
KDO2 200956Z 17004KT 25/20 A3001 RMK A01 T02480196  RH  072%=      5-min Rain = 0
KDO2 200957Z 16004KT 25/20 A3001 RMK A01 T02480195  RH  073%=      5-min Rain = 0
KDO2 200958Z 16004KT 25/20 A3001 RMK A01 T02470195  RH  073%=      5-min Rain = 0
KDO2 200959Z 16004KT 25/20 A3001 RMK A01 T02470195  RH  073%=      5-min Rain = 0
KDO2 201000Z 16004KT 25/20 A3001 RMK A01 T02460195  RH  073%=      5-min Rain = 0
KDO2 201001Z 16004KT 25/20 A3001 RMK A01 T02460195  RH  073%=      5-min Rain = 0
KDO2 201002Z 16005KT 25/20 A3001 RMK A01 T02460196  RH  074%=      5-min Rain = 0
KDO2 201003Z 16005KT 25/20 A3001 RMK A01 T02460196  RH  073%=      5-min Rain = 0
KDO2 201004Z 16005KT 25/20 A3001 RMK A01 T02460196  RH  073%=      5-min Rain = 0
KDO2 201005Z 16004KT 25/20 A3001 RMK A01 T02460195  RH  073%=      5-min Rain = 0
KDO2 201006Z 16005KT 25/20 A3001 RMK A01 T02470196  RH  073%=      5-min Rain = 0
KDO2 201007Z 16004KT 25/20 A3001 RMK A01 T02460197  RH  074%=      5-min Rain = 0
KDO2 201008Z 17004KT 25/20 A3001 RMK A01 T02460196  RH  074%=      5-min Rain = 0
KDO2 201009Z 17004KT 25/20 A3001 RMK A01 T02450196  RH  074%=      5-min Rain = 0
KDO2 201010Z 17004KT 25/20 A3001 RMK A01 T02450196  RH  074%=      5-min Rain = 0
KDO2 201011Z 18004KT 25/20 A3001 RMK A01 T02450196  RH  074%=      5-min Rain = 0
KDO2 201012Z 18004KT 25/20 A3001 RMK A01 T02450196  RH  074%=      5-min Rain = 0
KDO2 201013Z 18004KT 24/20 A3001 RMK A01 T02440196  RH  074%=      5-min Rain = 0
KDO2 201014Z 18004KT 24/20 A3001 RMK A01 T02440196  RH  075%=      5-min Rain = 0
KDO2 201015Z 18004KT 24/20 A3001 RMK A01 T02430196  RH  075%=      5-min Rain = 0
KDO2 201016Z 18004KT 24/20 A3001 RMK A01 T02430196  RH  075%=      5-min Rain = 0
KDO2 201017Z 18004KT 24/20 A3001 RMK A01 T02430196  RH  075%=      5-min Rain = 0
KDO2 201018Z 18004KT 24/20 A3001 RMK A01 T02430197  RH  075%=      5-min Rain = 0
KDO2 201019Z 18004KT 24/20 A3001 RMK A01 T02430197  RH  075%=      5-min Rain = 0
KDO2 201020Z 18004KT 24/20 A3001 RMK A01 T02430197  RH  075%=      5-min Rain = 0
KDO2 201021Z 18005KT 24/20 A3001 RMK A01 T02430197  RH  076%=      5-min Rain = 0
KDO2 201022Z 18004KT 24/20 A3001 RMK A01 T02420197  RH  076%=      5-min Rain = 0
KDO2 201023Z 18005KT 24/20 A3001 RMK A01 T02420197  RH  076%=      5-min Rain = 0
KDO2 201024Z 18005KT 24/20 A3001 RMK A01 T02410197  RH  076%=      5-min Rain = 0
KDO2 201025Z 18005KT 24/20 A3001 RMK A01 T02410197  RH  076%=      5-min Rain = 0
KDO2 201026Z 18005KT 24/20 A3001 RMK A01 T02410197  RH  076%=      5-min Rain = 0
KDO2 201027Z 18005KT 24/20 A3001 RMK A01 T02400197  RH  077%=      5-min Rain = 0
KDO2 201028Z 17005KT 24/20 A3001 RMK A01 T02400198  RH  077%=      5-min Rain = 0
KDO2 201029Z 17005KT 24/20 A3001 RMK A01 T02410198  RH  077%=      5-min Rain = 0
KDO2 201030Z 17005KT 24/20 A3001 RMK A01 T02400198  RH  077%=      5-min Rain = 0
KDO2 201031Z 17006KT 24/20 A3002 RMK A01 T02400198  RH  078%=      5-min Rain = 0
KDO2 201032Z 17006KT 24/20 A3002 RMK A01 T02400199  RH  078%=      5-min Rain = 0
KDO2 201033Z 17006KT 24/20 A3002 RMK A01 T02400199  RH  078%=      5-min Rain = 0
KDO2 201034Z 17006KT 24/20 A3002 RMK A01 T02400199  RH  078%=      5-min Rain = 0
KDO2 201035Z 17006KT 24/20 A3002 RMK A01 T02400200  RH  078%=      5-min Rain = 0
KDO2 201036Z 17006KT 24/20 A3002 RMK A01 T02410200  RH  078%=      5-min Rain = 0
KDO2 201037Z 17006KT 24/20 A3002 RMK A01 T02410200  RH  078%=      5-min Rain = 0
KDO2 201038Z 17006KT 24/20 A3002 RMK A01 T02410200  RH  078%=      5-min Rain = 0
KDO2 201039Z 17006KT 24/20 A3002 RMK A01 T02420201  RH  078%=      5-min Rain = 0
KDO2 201040Z 17005KT 24/20 A3002 RMK A01 T02420201  RH  078%=      5-min Rain = 0
KDO2 201041Z 17005KT 24/20 A3002 RMK A01 T02430201  RH  078%=      5-min Rain = 0
KDO2 201042Z 17005KT 24/20 A3002 RMK A01 T02440202  RH  077%=      5-min Rain = 0
KDO2 201043Z 18005KT 24/20 A3002 RMK A01 T02440202  RH  077%=      5-min Rain = 0
KDO2 201044Z 17005KT 24/20 A3002 RMK A01 T02440202  RH  077%=      5-min Rain = 0
KDO2 201045Z 18005KT 24/20 A3002 RMK A01 T02440203  RH  077%=      5-min Rain = 0
KDO2 201046Z 18005KT 25/20 A3002 RMK A01 T02450203  RH  077%=      5-min Rain = 0
KDO2 201047Z 18004KT 25/20 A3002 RMK A01 T02450202  RH  077%=      5-min Rain = 0
KDO2 201048Z 18005KT 25/20 A3002 RMK A01 T02460203  RH  077%=      5-min Rain = 0
KDO2 201049Z 18005KT 25/20 A3002 RMK A01 T02450203  RH  077%=      5-min Rain = 0
KDO2 201050Z 18005KT 25/20 A3002 RMK A01 T02450202  RH  077%=      5-min Rain = 0
KDO2 201051Z 18004KT 25/20 A3002 RMK A01 T02460203  RH  077%=      5-min Rain = 0
KDO2 201052Z 18004KT 25/20 A3002 RMK A01 T02460203  RH  077%=      5-min Rain = 0
KDO2 201053Z 18005KT 25/20 A3002 RMK A01 T02450203  RH  077%=      5-min Rain = 0
KDO2 201054Z 18005KT 25/20 A3002 RMK A01 T02450203  RH  077%=      5-min Rain = 0
KDO2 201055Z 18005KT 25/20 A3002 RMK A01 T02450203  RH  078%=      5-min Rain = 0
KDO2 201056Z 18005KT 25/20 A3002 RMK A01 T02450203  RH  078%=      5-min Rain = 0
KDO2 201057Z 18004KT 25/20 A3002 RMK A01 T02450203  RH  078%=      5-min Rain = 0
KDO2 201058Z 18004KT 25/20 A3002 RMK A01 T02450203  RH  078%=      5-min Rain = 0
KDO2 201059Z 17004KT 25/20 A3002 RMK A01 T02450204  RH  078%=      5-min Rain = 0
KDO2 201100Z 17005KT 25/20 A3002 RMK A01 T02450204  RH  078%=      5-min Rain = 0
KDO2 201101Z 17004KT 25/20 A3002 RMK A01 T02450204  RH  078%=      5-min Rain = 0
KDO2 201102Z 17005KT 25/20 A3002 RMK A01 T02450204  RH  078%=      5-min Rain = 0
KDO2 201103Z 17005KT 25/20 A3002 RMK A01 T02450204  RH  078%=      5-min Rain = 0
KDO2 201104Z 17005KT 24/20 A3002 RMK A01 T02440204  RH  078%=      5-min Rain = 0
KDO2 201105Z 17004KT 24/20 A3002 RMK A01 T02440204  RH  078%=      5-min Rain = 0
KDO2 201106Z 17005KT 24/20 A3002 RMK A01 T02440204  RH  078%=      5-min Rain = 0
KDO2 201107Z 17005KT 24/20 A3002 RMK A01 T02440204  RH  078%=      5-min Rain = 0
KDO2 201108Z 17004KT 24/20 A3002 RMK A01 T02440204  RH  079%=      5-min Rain = 0
KDO2 201109Z 17005KT 24/21 A3002 RMK A01 T02430205  RH  079%=      5-min Rain = 0
KDO2 201110Z 17005KT 24/21 A3002 RMK A01 T02430205  RH  079%=      5-min Rain = 0
KDO2 201111Z 17005KT 24/21 A3002 RMK A01 T02430205  RH  079%=      5-min Rain = 0
KDO2 201112Z 16005KT 24/21 A3002 RMK A01 T02430205  RH  079%=      5-min Rain = 0
KDO2 201113Z 17004KT 24/21 A3002 RMK A01 T02430205  RH  079%=      5-min Rain = 0
KDO2 201114Z 17005KT 24/21 A3002 RMK A01 T02430205  RH  079%=      5-min Rain = 0
KDO2 201115Z 16004KT 24/21 A3002 RMK A01 T02430205  RH  080%=      5-min Rain = 0
KDO2 201116Z 16004KT 24/21 A3002 RMK A01 T02430205  RH  079%=      5-min Rain = 0
KDO2 201117Z 16004KT 24/21 A3002 RMK A01 T02430205  RH  079%=      5-min Rain = 0
KDO2 201118Z 15004KT 24/21 A3002 RMK A01 T02420205  RH  080%=      5-min Rain = 0
KDO2 201119Z 15004KT 24/21 A3002 RMK A01 T02420205  RH  080%=      5-min Rain = 0
KDO2 201120Z 15004KT 24/20 A3002 RMK A01 T02410204  RH  080%=      5-min Rain = 0
KDO2 201121Z 15004KT 24/20 A3002 RMK A01 T02410204  RH  080%=      5-min Rain = 0
KDO2 201122Z 15004KT 24/20 A3002 RMK A01 T02400204  RH  080%=      5-min Rain = 0
KDO2 201123Z 16004KT 24/20 A3002 RMK A01 T02390204  RH  081%=      5-min Rain = 0
KDO2 201124Z 16004KT 24/20 A3002 RMK A01 T02390204  RH  081%=      5-min Rain = 0
KDO2 201125Z 16004KT 24/20 A3002 RMK A01 T02390204  RH  081%=      5-min Rain = 0
KDO2 201126Z 16004KT 24/20 A3002 RMK A01 T02390204  RH  081%=      5-min Rain = 0
KDO2 201127Z 17003KT 24/20 A3002 RMK A01 T02390204  RH  081%=      5-min Rain = 0
KDO2 201128Z 17003KT 24/20 A3002 RMK A01 T02390204  RH  081%=      5-min Rain = 0
KDO2 201129Z 17003KT 24/20 A3002 RMK A01 T02380204  RH  081%=      5-min Rain = 0
KDO2 201130Z 17004KT 24/21 A3002 RMK A01 T02390205  RH  082%=      5-min Rain = 0
KDO2 201131Z 17004KT 24/21 A3002 RMK A01 T02390206  RH  082%=      5-min Rain = 0
KDO2 201132Z 17004KT 24/20 A3002 RMK A01 T02380204  RH  081%=      5-min Rain = 0
KDO2 201133Z 17004KT 24/21 A3002 RMK A01 T02390205  RH  081%=      5-min Rain = 0
KDO2 201134Z 17004KT 24/21 A3002 RMK A01 T02390205  RH  081%=      5-min Rain = 0
KDO2 201135Z 18004KT 24/21 A3002 RMK A01 T02390205  RH  081%=      5-min Rain = 0
KDO2 201136Z 18004KT 24/21 A3002 RMK A01 T02380205  RH  081%=      5-min Rain = 0
KDO2 201137Z 18004KT 24/20 A3002 RMK A01 T02380204  RH  082%=      5-min Rain = 0
KDO2 201138Z 18004KT 24/20 A3002 RMK A01 T02370204  RH  082%=      5-min Rain = 0
KDO2 201139Z 18004KT 24/20 A3002 RMK A01 T02370204  RH  082%=      5-min Rain = 0
KDO2 201140Z 18004KT 24/20 A3002 RMK A01 T02370204  RH  082%=      5-min Rain = 0
KDO2 201141Z 18004KT 24/20 A3002 RMK A01 T02360204  RH  082%=      5-min Rain = 0
KDO2 201142Z 17004KT 24/20 A3002 RMK A01 T02360204  RH  082%=      5-min Rain = 0
KDO2 201143Z 18004KT 24/21 A3002 RMK A01 T02360205  RH  083%=      5-min Rain = 0
KDO2 201144Z 17004KT 24/20 A3002 RMK A01 T02360204  RH  082%=      5-min Rain = 0
KDO2 201145Z 17004KT 24/20 A3002 RMK A01 T02350204  RH  082%=      5-min Rain = 0
KDO2 201146Z 17004KT 24/20 A3002 RMK A01 T02350204  RH  082%=      5-min Rain = 0
KDO2 201147Z 17004KT 24/20 A3002 RMK A01 T02350204  RH  083%=      5-min Rain = 0
KDO2 201148Z 17004KT 23/20 A3002 RMK A01 T02340204  RH  083%=      5-min Rain = 0
KDO2 201149Z 16004KT 24/20 A3002 RMK A01 T02350204  RH  083%=      5-min Rain = 0
KDO2 201150Z 16004KT 23/20 A3002 RMK A01 T02340203  RH  083%=      5-min Rain = 0
KDO2 201151Z 15005KT 23/20 A3002 RMK A01 T02340203  RH  083%=      5-min Rain = 0
KDO2 201152Z 15005KT 23/20 A3002 RMK A01 T02330203  RH  083%=      5-min Rain = 0
KDO2 201153Z 15005KT 23/20 A3002 RMK A01 T02320203  RH  084%=      5-min Rain = 0
KDO2 201154Z 14005KT 23/20 A3003 RMK A01 T02320203  RH  084%=      5-min Rain = 0
KDO2 201155Z 14006KT 23/20 A3003 RMK A01 T02310203  RH  084%=      5-min Rain = 0
KDO2 201156Z 14006KT 23/20 A3003 RMK A01 T02310204  RH  084%=      5-min Rain = 0
KDO2 201157Z 14006KT 23/20 A3003 RMK A01 T02310204  RH  084%=      5-min Rain = 0
KDO2 201158Z 14006KT 23/20 A3003 RMK A01 T02320204  RH  085%=      5-min Rain = 0
KDO2 201159Z 14006KT 23/20 A3003 RMK A01 T02320204  RH  084%=      5-min Rain = 0
KDO2 201200Z 14006KT 23/20 A3003 RMK A01 T02320204  RH  084%=      5-min Rain = 0
KDO2 201201Z 14006KT 23/20 A3003 RMK A01 T02320204  RH  084%=      5-min Rain = 0
KDO2 201202Z 14006KT 23/21 A3003 RMK A01 T02320205  RH  085%=      5-min Rain = 0
KDO2 201203Z 15006KT 23/21 A3003 RMK A01 T02320205  RH  085%=      5-min Rain = 0
KDO2 201204Z 15005KT 23/21 A3003 RMK A01 T02320205  RH  085%=      5-min Rain = 0
KDO2 201205Z 15005KT 23/21 A3003 RMK A01 T02320205  RH  085%=      5-min Rain = 0
KDO2 201206Z 15005KT 23/21 A3003 RMK A01 T02320205  RH  085%=      5-min Rain = 0
KDO2 201207Z 15005KT 23/21 A3003 RMK A01 T02320205  RH  085%=      5-min Rain = 0
KDO2 201208Z 16005KT 23/21 A3003 RMK A01 T02320205  RH  085%=      5-min Rain = 0
KDO2 201209Z 16006KT 23/21 A3003 RMK A01 T02320205  RH  085%=      5-min Rain = 0
KDO2 201210Z 16006KT 23/21 A3003 RMK A01 T02320206  RH  085%=      5-min Rain = 0
KDO2 201211Z 16006KT 23/21 A3003 RMK A01 T02330206  RH  085%=      5-min Rain = 0
KDO2 201212Z 16006KT 23/21 A3003 RMK A01 T02340206  RH  085%=      5-min Rain = 0
KDO2 201213Z 17006KT 23/21 A3003 RMK A01 T02340206  RH  084%=      5-min Rain = 0
KDO2 201214Z 17006KT 24/21 A3003 RMK A01 T02350207  RH  084%=      5-min Rain = 0
KDO2 201215Z 16005KT 24/21 A3003 RMK A01 T02360207  RH  084%=      5-min Rain = 0
KDO2 201216Z 16006KT 24/21 A3003 RMK A01 T02360207  RH  084%=      5-min Rain = 0
KDO2 201217Z 16006KT 24/21 A3003 RMK A01 T02360207  RH  084%=      5-min Rain = 0
KDO2 201218Z 16006KT 24/21 A3003 RMK A01 T02360207  RH  084%=      5-min Rain = 0
KDO2 201219Z 16006KT 24/21 A3003 RMK A01 T02360207  RH  084%=      5-min Rain = 0
KDO2 201220Z 15006KT 24/21 A3003 RMK A01 T02370207  RH  084%=      5-min Rain = 0
KDO2 201221Z 15006KT 24/21 A3003 RMK A01 T02370208  RH  083%=      5-min Rain = 0
KDO2 201222Z 15006KT 24/21 A3003 RMK A01 T02380207  RH  083%=      5-min Rain = 0
KDO2 201223Z 15006KT 24/21 A3003 RMK A01 T02380208  RH  083%=      5-min Rain = 0
KDO2 201224Z 16006KT 24/21 A3003 RMK A01 T02380207  RH  083%=      5-min Rain = 0
KDO2 201225Z 16006KT 24/21 A3003 RMK A01 T02380208  RH  083%=      5-min Rain = 0
KDO2 201226Z 16006KT 24/21 A3003 RMK A01 T02390208  RH  083%=      5-min Rain = 0
KDO2 201227Z 16006KT 24/21 A3003 RMK A01 T02390208  RH  083%=      5-min Rain = 0
KDO2 201228Z 16006KT 24/21 A3003 RMK A01 T02390208  RH  083%=      5-min Rain = 0
KDO2 201229Z 16006KT 24/21 A3003 RMK A01 T02400208  RH  082%=      5-min Rain = 0
KDO2 201230Z 16006KT 24/21 A3003 RMK A01 T02400208  RH  082%=      5-min Rain = 0
KDO2 201231Z 16006KT 24/21 A3003 RMK A01 T02410208  RH  082%=      5-min Rain = 0
KDO2 201232Z 16006KT 24/21 A3003 RMK A01 T02410209  RH  082%=      5-min Rain = 0
KDO2 201233Z 16005KT 24/21 A3003 RMK A01 T02410209  RH  082%=      5-min Rain = 0
KDO2 201234Z 16005KT 24/21 A3003 RMK A01 T02420209  RH  082%=      5-min Rain = 0
KDO2 201235Z 16005KT 24/21 A3003 RMK A01 T02420209  RH  082%=      5-min Rain = 0
KDO2 201236Z 17005KT 24/21 A3003 RMK A01 T02420209  RH  082%=      5-min Rain = 0
KDO2 201237Z 17005KT 24/21 A3003 RMK A01 T02420209  RH  082%=      5-min Rain = 0
KDO2 201238Z 17005KT 24/21 A3003 RMK A01 T02430209  RH  082%=      5-min Rain = 0
KDO2 201239Z 17005KT 24/21 A3003 RMK A01 T02430209  RH  081%=      5-min Rain = 0
KDO2 201240Z 16005KT 24/21 A3004 RMK A01 T02430209  RH  081%=      5-min Rain = 0
KDO2 201241Z 16004KT 24/21 A3004 RMK A01 T02430210  RH  081%=      5-min Rain = 0
KDO2 201242Z 17005KT 24/21 A3004 RMK A01 T02430209  RH  081%=      5-min Rain = 0
KDO2 201243Z 16004KT 24/21 A3004 RMK A01 T02440210  RH  081%=      5-min Rain = 0
KDO2 201244Z 17005KT 24/21 A3004 RMK A01 T02440210  RH  081%=      5-min Rain = 0
KDO2 201245Z 17005KT 24/21 A3004 RMK A01 T02440210  RH  081%=      5-min Rain = 0
KDO2 201246Z 17005KT 25/21 A3004 RMK A01 T02450210  RH  081%=      5-min Rain = 0
KDO2 201247Z 17005KT 25/21 A3004 RMK A01 T02450210  RH  081%=      5-min Rain = 0
KDO2 201248Z 17004KT 25/21 A3004 RMK A01 T02450210  RH  081%=      5-min Rain = 0
KDO2 201249Z 17004KT 25/21 A3004 RMK A01 T02460211  RH  081%=      5-min Rain = 0
KDO2 201250Z 17004KT 25/21 A3004 RMK A01 T02460211  RH  081%=      5-min Rain = 0
KDO2 201251Z 16004KT 25/21 A3004 RMK A01 T02470211  RH  080%=      5-min Rain = 0
KDO2 201252Z 16004KT 25/21 A3004 RMK A01 T02470211  RH  080%=      5-min Rain = 0
KDO2 201253Z 16004KT 25/21 A3004 RMK A01 T02480212  RH  080%=      5-min Rain = 0
KDO2 201254Z 16004KT 25/21 A3004 RMK A01 T02480212  RH  080%=      5-min Rain = 0
KDO2 201255Z 15003KT 25/21 A3004 RMK A01 T02480212  RH  080%=      5-min Rain = 0
KDO2 201256Z 15004KT 25/21 A3004 RMK A01 T02490212  RH  080%=      5-min Rain = 0
KDO2 201257Z 15003KT 25/21 A3004 RMK A01 T02500212  RH  080%=      5-min Rain = 0
KDO2 201258Z 14004KT 25/21 A3004 RMK A01 T02500212  RH  080%=      5-min Rain = 0
KDO2 201259Z 15004KT 25/21 A3004 RMK A01 T02500213  RH  080%=      5-min Rain = 0
KDO2 201300Z 14004KT 25/21 A3004 RMK A01 T02510213  RH  080%=      5-min Rain = 0
KDO2 201301Z 15004KT 25/21 A3005 RMK A01 T02510214  RH  080%=      5-min Rain = 0
KDO2 201302Z 14004KT 25/21 A3005 RMK A01 T02520214  RH  080%=      5-min Rain = 0
KDO2 201303Z 14005KT 25/21 A3005 RMK A01 T02520214  RH  079%=      5-min Rain = 0
KDO2 201304Z 14006KT 25/21 A3005 RMK A01 T02520213  RH  079%=      5-min Rain = 0
KDO2 201305Z 14007KT 25/21 A3005 RMK A01 T02520214  RH  079%=      5-min Rain = 0
KDO2 201306Z 14006KT 25/21 A3005 RMK A01 T02520214  RH  079%=      5-min Rain = 0
KDO2 201307Z 14007KT 25/21 A3005 RMK A01 T02530214  RH  079%=      5-min Rain = 0
KDO2 201308Z 14007KT 25/21 A3005 RMK A01 T02530214  RH  079%=      5-min Rain = 0
KDO2 201309Z 14006KT 25/21 A3005 RMK A01 T02530213  RH  079%=      5-min Rain = 0
KDO2 201310Z 14006KT 25/21 A3005 RMK A01 T02540214  RH  079%=      5-min Rain = 0
KDO2 201311Z 14006KT 25/21 A3005 RMK A01 T02540214  RH  079%=      5-min Rain = 0
KDO2 201312Z 15005KT 25/21 A3005 RMK A01 T02540214  RH  079%=      5-min Rain = 0
KDO2 201313Z 15005KT 26/22 A3005 RMK A01 T02550215  RH  079%=      5-min Rain = 0
KDO2 201314Z 15006KT 26/22 A3005 RMK A01 T02550215  RH  078%=      5-min Rain = 0
KDO2 201315Z 15006KT 26/22 A3005 RMK A01 T02560215  RH  078%=      5-min Rain = 0
KDO2 201316Z 14006KT 26/22 A3005 RMK A01 T02560216  RH  078%=      5-min Rain = 0
KDO2 201317Z 14006KT 26/22 A3005 RMK A01 T02570216  RH  078%=      5-min Rain = 0
KDO2 201318Z 15006KT 26/22 A3005 RMK A01 T02580216  RH  078%=      5-min Rain = 0
KDO2 201319Z 16006KT 26/22 A3005 RMK A01 T02580216  RH  078%=      5-min Rain = 0
KDO2 201320Z 15006KT 26/22 A3005 RMK A01 T02580216  RH  077%=      5-min Rain = 0
KDO2 201321Z 15005KT 26/22 A3005 RMK A01 T02590217  RH  078%=      5-min Rain = 0
KDO2 201322Z 16007KT 26/22 A3005 RMK A01 T02600217  RH  077%=      5-min Rain = 0
KDO2 201323Z 16008KT 26/22 A3005 RMK A01 T02600216  RH  077%=      5-min Rain = 0
KDO2 201324Z 16006KT 26/22 A3005 RMK A01 T02600217  RH  077%=      5-min Rain = 0
KDO2 201325Z 16008KT 26/22 A3005 RMK A01 T02610217  RH  077%=      5-min Rain = 0
KDO2 201326Z 16006KT 26/22 A3005 RMK A01 T02610217  RH  077%=      5-min Rain = 0
KDO2 201327Z 17007KT 26/22 A3005 RMK A01 T02620218  RH  077%=      5-min Rain = 0
KDO2 201328Z 17007KT 26/22 A3005 RMK A01 T02630218  RH  076%=      5-min Rain = 0
KDO2 201329Z 17006KT 26/22 A3005 RMK A01 T02630218  RH  076%=      5-min Rain = 0
KDO2 201330Z 16005KT 26/22 A3006 RMK A01 T02630218  RH  076%=      5-min Rain = 0
KDO2 201331Z 16004KT 26/22 A3006 RMK A01 T02640219  RH  076%=      5-min Rain = 0
KDO2 201332Z 17005KT 27/22 A3006 RMK A01 T02650221  RH  077%=      5-min Rain = 0
KDO2 201333Z 17006KT 27/22 A3006 RMK A01 T02660219  RH  076%=      5-min Rain = 0
KDO2 201334Z 17005KT 27/22 A3006 RMK A01 T02660219  RH  075%=      5-min Rain = 0
KDO2 201335Z 17005KT 27/22 A3006 RMK A01 T02670219  RH  075%=      5-min Rain = 0
KDO2 201336Z 17005KT 27/22 A3006 RMK A01 T02670220  RH  075%=      5-min Rain = 0
KDO2 201337Z 16005KT 27/22 A3006 RMK A01 T02680220  RH  075%=      5-min Rain = 0
KDO2 201338Z 16006KT 27/22 A3006 RMK A01 T02680221  RH  075%=      5-min Rain = 0
KDO2 201339Z 17005KT 27/22 A3006 RMK A01 T02690220  RH  074%=      5-min Rain = 0
KDO2 201340Z 17005KT 27/22 A3006 RMK A01 T02690220  RH  075%=      5-min Rain = 0
KDO2 201341Z 17006KT 27/22 A3006 RMK A01 T02690220  RH  074%=      5-min Rain = 0
KDO2 201342Z 16007KT 27/22 A3006 RMK A01 T02690220  RH  074%=      5-min Rain = 0
KDO2 201343Z 16008KT 27/22 A3006 RMK A01 T02700220  RH  074%=      5-min Rain = 0
KDO2 201344Z 15008KT 27/22 A3006 RMK A01 T02700220  RH  074%=      5-min Rain = 0
KDO2 201345Z 16006KT 27/22 A3006 RMK A01 T02700220  RH  074%=      5-min Rain = 0
KDO2 201346Z 16007KT 27/22 A3006 RMK A01 T02700220  RH  074%=      5-min Rain = 0
KDO2 201347Z 15008KT 27/22 A3006 RMK A01 T02710220  RH  074%=      5-min Rain = 0
KDO2 201348Z 15007KT 27/22 A3006 RMK A01 T02710221  RH  074%=      5-min Rain = 0
KDO2 201349Z 16007KT 27/22 A3006 RMK A01 T02720221  RH  074%=      5-min Rain = 0
KDO2 201350Z 16006KT 27/22 A3006 RMK A01 T02720221  RH  074%=      5-min Rain = 0
KDO2 201351Z 16007KT 27/22 A3006 RMK A01 T02730222  RH  074%=      5-min Rain = 0
KDO2 201352Z 16008KT 27/22 A3006 RMK A01 T02730222  RH  074%=      5-min Rain = 0
KDO2 201353Z 15008KT 27/22 A3006 RMK A01 T02730221  RH  073%=      5-min Rain = 0
KDO2 201354Z 16008KT 27/22 A3006 RMK A01 T02730222  RH  073%=      5-min Rain = 0
KDO2 201355Z 16007KT 27/22 A3006 RMK A01 T02740222  RH  073%=      5-min Rain = 0
KDO2 201356Z 16006KT 27/22 A3006 RMK A01 T02740223  RH  074%=      5-min Rain = 0
KDO2 201357Z 16007KT 28/22 A3006 RMK A01 T02750222  RH  073%=      5-min Rain = 0
KDO2 201358Z 18006KT 28/22 A3006 RMK A01 T02750222  RH  073%=      5-min Rain = 0
KDO2 201359Z 18006KT 28/22 A3006 RMK A01 T02760222  RH  073%=      5-min Rain = 0
KDO2 201400Z 17005KT 28/22 A3006 RMK A01 T02770224  RH  073%=      5-min Rain = 0
KDO2 201401Z 16007KT 28/22 A3006 RMK A01 T02780223  RH  072%=      5-min Rain = 0
KDO2 201402Z 15008KT 28/22 A3006 RMK A01 T02780221  RH  071%=      5-min Rain = 0
KDO2 201403Z 16007KT 28/22 A3006 RMK A01 T02780221  RH  071%=      5-min Rain = 0
KDO2 201404Z 17008KT 28/22 A3006 RMK A01 T02780221  RH  071%=      5-min Rain = 0
KDO2 201405Z 16007KT 28/22 A3006 RMK A01 T02770221  RH  072%=      5-min Rain = 0
KDO2 201406Z 16007KT 28/22 A3006 RMK A01 T02770221  RH  071%=      5-min Rain = 0
KDO2 201407Z 15007KT 28/22 A3006 RMK A01 T02780222  RH  071%=      5-min Rain = 0
KDO2 201408Z 15007KT 28/22 A3006 RMK A01 T02790221  RH  071%=      5-min Rain = 0
KDO2 201409Z 15007KT 28/22 A3006 RMK A01 T02790221  RH  071%=      5-min Rain = 0
KDO2 201410Z 17005KT 28/22 A3006 RMK A01 T02790222  RH  071%=      5-min Rain = 0
KDO2 201411Z 16006KT 28/22 A3006 RMK A01 T02800222  RH  071%=      5-min Rain = 0
KDO2 201412Z 15006KT 28/22 A3006 RMK A01 T02800222  RH  071%=      5-min Rain = 0
KDO2 201413Z 15005KT 28/22 A3006 RMK A01 T02800220  RH  070%=      5-min Rain = 0
KDO2 201414Z 18006KT 28/22 A3006 RMK A01 T02800223  RH  071%=      5-min Rain = 0
KDO2 201415Z 19006KT 28/22 A3006 RMK A01 T02810220  RH  070%=      5-min Rain = 0
KDO2 201416Z 19007KT 28/22 A3006 RMK A01 T02810221  RH  070%=      5-min Rain = 0
KDO2 201417Z 19008KT 28/22 A3006 RMK A01 T02820219  RH  069%=      5-min Rain = 0
KDO2 201418Z 20006KT 28/22 A3006 RMK A01 T02820220  RH  069%=      5-min Rain = 0
KDO2 201419Z 18007KT 28/22 A3006 RMK A01 T02830220  RH  069%=      5-min Rain = 0
KDO2 201420Z 19006KT 28/22 A3006 RMK A01 T02820220  RH  069%=      5-min Rain = 0
KDO2 201421Z 20006KT 28/22 A3006 RMK A01 T02820218  RH  068%=      5-min Rain = 0
KDO2 201422Z 18006KT 28/22 A3006 RMK A01 T02820219  RH  068%=      5-min Rain = 0
KDO2 201423Z 18004KT 28/22 A3006 RMK A01 T02820219  RH  068%=      5-min Rain = 0
KDO2 201424Z 17007KT 28/22 A3006 RMK A01 T02830221  RH  069%=      5-min Rain = 0
KDO2 201425Z 17005KT 28/22 A3006 RMK A01 T02840221  RH  069%=      5-min Rain = 0
KDO2 201426Z 17005KT 29/22 A3006 RMK A01 T02850220  RH  068%=      5-min Rain = 0
KDO2 201427Z 17006KT 29/22 A3006 RMK A01 T02850219  RH  067%=      5-min Rain = 0
KDO2 201428Z 18005KT 29/22 A3006 RMK A01 T02860219  RH  067%=      5-min Rain = 0
KDO2 201429Z 20007KT 29/22 A3006 RMK A01 T02850220  RH  068%=      5-min Rain = 0
KDO2 201430Z 19007KT 29/22 A3006 RMK A01 T02860219  RH  067%=      5-min Rain = 0
KDO2 201431Z 18007KT 29/22 A3006 RMK A01 T02860220  RH  067%=      5-min Rain = 0
KDO2 201432Z 18009KT 29/22 A3006 RMK A01 T02870220  RH  067%=      5-min Rain = 0
KDO2 201433Z 17008KT 29/22 A3006 RMK A01 T02870218  RH  066%=      5-min Rain = 0
KDO2 201434Z 18007KT 29/22 A3006 RMK A01 T02870218  RH  066%=      5-min Rain = 0
KDO2 201435Z 18008KT 29/22 A3006 RMK A01 T02880220  RH  067%=      5-min Rain = 0
KDO2 201436Z 18006KT 29/22 A3006 RMK A01 T02890221  RH  067%=      5-min Rain = 0
KDO2 201437Z 18006KT 29/22 A3006 RMK A01 T02890220  RH  066%=      5-min Rain = 0
KDO2 201438Z 19007KT 29/22 A3006 RMK A01 T02890219  RH  066%=      5-min Rain = 0
KDO2 201439Z 19005KT 29/22 A3006 RMK A01 T02890219  RH  066%=      5-min Rain = 0
KDO2 201440Z 18007KT 29/22 A3006 RMK A01 T02890221  RH  067%=      5-min Rain = 0
KDO2 201441Z 16006KT 29/22 A3006 RMK A01 T02900223  RH  067%=      5-min Rain = 0
KDO2 201442Z 19008KT 29/22 A3006 RMK A01 T02910220  RH  065%=      5-min Rain = 0
KDO2 201443Z 18005KT 29/22 A3006 RMK A01 T02920219  RH  065%=      5-min Rain = 0
KDO2 201444Z 17005KT 29/22 A3006 RMK A01 T02920220  RH  065%=      5-min Rain = 0
KDO2 201445Z 17007KT 29/22 A3006 RMK A01 T02920221  RH  065%=      5-min Rain = 0
KDO2 201446Z 18006KT 29/22 A3006 RMK A01 T02930220  RH  065%=      5-min Rain = 0
KDO2 201447Z 17007KT 29/22 A3006 RMK A01 T02940220  RH  065%=      5-min Rain = 0
KDO2 201448Z 17006KT 29/22 A3006 RMK A01 T02940220  RH  064%=      5-min Rain = 0
KDO2 201449Z 19006KT 30/22 A3006 RMK A01 T02950220  RH  064%=      5-min Rain = 0
KDO2 201450Z 18007KT 30/22 A3006 RMK A01 T02950220  RH  064%=      5-min Rain = 0
KDO2 201451Z 18005KT 30/22 A3006 RMK A01 T02950220  RH  064%=      5-min Rain = 0
KDO2 201452Z 20006KT 30/22 A3006 RMK A01 T02950221  RH  064%=      5-min Rain = 0
KDO2 201453Z 21007KT 30/22 A3006 RMK A01 T02950220  RH  064%=      5-min Rain = 0
KDO2 201454Z 20006KT 30/22 A3006 RMK A01 T02960217  RH  063%=      5-min Rain = 0
KDO2 201455Z 19006KT 30/22 A3006 RMK A01 T02950218  RH  063%=      5-min Rain = 0
KDO2 201456Z 19005KT 30/22 A3006 RMK A01 T02950217  RH  063%=      5-min Rain = 0
KDO2 201457Z 18005KT 30/22 A3006 RMK A01 T02950219  RH  064%=      5-min Rain = 0
KDO2 201458Z 15005KT 30/22 A3006 RMK A01 T02970221  RH  064%=      5-min Rain = 0
KDO2 201459Z 13006KT 30/22 A3006 RMK A01 T02980219  RH  063%=      5-min Rain = 0
KDO2 201500Z 12005KT 30/22 A3006 RMK A01 T02990218  RH  062%=      5-min Rain = 0
KDO2 201501Z 13005KT 30/22 A3006 RMK A01 T02990217  RH  061%=      5-min Rain = 0
KDO2 201502Z 17006KT 30/22 A3006 RMK A01 T02990220  RH  063%=      5-min Rain = 0
KDO2 201503Z 19005KT 30/22 A3006 RMK A01 T02990222  RH  063%=      5-min Rain = 0
KDO2 201504Z 19003KT 30/22 A3006 RMK A01 T03000218  RH  061%=      5-min Rain = 0
KDO2 201505Z 14005KT 30/22 A3006 RMK A01 T03010219  RH  062%=      5-min Rain = 0
KDO2 201506Z 14004KT 30/22 A3006 RMK A01 T03010217  RH  061%=      5-min Rain = 0
KDO2 201507Z 18004KT 30/22 A3006 RMK A01 T03020223  RH  063%=      5-min Rain = 0
KDO2 201508Z 19006KT 30/22 A3006 RMK A01 T03030219  RH  061%=      5-min Rain = 0
KDO2 201509Z 20005KT 30/22 A3006 RMK A01 T03040218  RH  060%=      5-min Rain = 0
KDO2 201510Z 19004KT 30/22 A3006 RMK A01 T03040219  RH  060%=      5-min Rain = 0
KDO2 201511Z 19006KT 30/22 A3006 RMK A01 T03040218  RH  060%=      5-min Rain = 0
KDO2 201512Z 20006KT 30/22 A3006 RMK A01 T03040219  RH  060%=      5-min Rain = 0
KDO2 201513Z 20006KT 30/22 A3006 RMK A01 T03040217  RH  060%=      5-min Rain = 0
KDO2 201514Z 19004KT 30/22 A3006 RMK A01 T03040216  RH  060%=      5-min Rain = 0
KDO2 201515Z 20005KT 30/22 A3006 RMK A01 T03040220  RH  061%=      5-min Rain = 0
KDO2 201516Z 18006KT 30/22 A3007 RMK A01 T03040215  RH  059%=      5-min Rain = 0
KDO2 201517Z 18006KT 30/21 A3007 RMK A01 T03040214  RH  059%=      5-min Rain = 0
KDO2 201518Z 17003KT 30/21 A3007 RMK A01 T03030213  RH  059%=      5-min Rain = 0
KDO2 201519Z 18003KT 30/21 A3007 RMK A01 T03030213  RH  059%=      5-min Rain = 0
KDO2 201520Z 19004KT 30/22 A3007 RMK A01 T03030218  RH  060%=      5-min Rain = 0
KDO2 201521Z 19006KT 31/22 A3007 RMK A01 T03050220  RH  060%=      5-min Rain = 0
KDO2 201522Z 18006KT 31/21 A3007 RMK A01 T03060214  RH  058%=      5-min Rain = 0
KDO2 201523Z 20007KT 31/22 A3007 RMK A01 T03060216  RH  058%=      5-min Rain = 0
KDO2 201524Z 19007KT 31/22 A3007 RMK A01 T03080218  RH  059%=      5-min Rain = 0
KDO2 201525Z 15006KT 31/21 A3007 RMK A01 T03080214  RH  057%=      5-min Rain = 0
KDO2 201526Z 16005KT 31/22 A3007 RMK A01 T03080221  RH  060%=      5-min Rain = 0
KDO2 201527Z 15006KT 31/22 A3007 RMK A01 T03080219  RH  059%=      5-min Rain = 0
KDO2 201528Z 16005KT 31/22 A3007 RMK A01 T03100218  RH  058%=      5-min Rain = 0
KDO2 201529Z 19005KT 31/21 A3007 RMK A01 T03100214  RH  056%=      5-min Rain = 0
KDO2 201530Z 18003KT 31/21 A3007 RMK A01 T03100212  RH  056%=      5-min Rain = 0
KDO2 201531Z 17006KT 31/22 A3007 RMK A01 T03100216  RH  057%=      5-min Rain = 0
KDO2 201532Z 18005KT 31/21 A3007 RMK A01 T03110213  RH  056%=      5-min Rain = 0
KDO2 201533Z 18005KT 31/21 A3007 RMK A01 T03100212  RH  056%=      5-min Rain = 0
KDO2 201534Z 18005KT 31/21 A3007 RMK A01 T03090213  RH  057%=      5-min Rain = 0
KDO2 201535Z 21004KT 31/21 A3007 RMK A01 T03090212  RH  056%=      5-min Rain = 0
KDO2 201536Z 18003KT 31/21 A3007 RMK A01 T03090212  RH  056%=      5-min Rain = 0
KDO2 201537Z 18003KT 31/21 A3007 RMK A01 T03090213  RH  057%=      5-min Rain = 0
KDO2 201538Z 20004KT 31/21 A3007 RMK A01 T03090214  RH  057%=      5-min Rain = 0
KDO2 201539Z 19004KT 31/22 A3007 RMK A01 T03110215  RH  057%=      5-min Rain = 0
KDO2 201540Z 19004KT 31/21 A3007 RMK A01 T03120214  RH  056%=      5-min Rain = 0
KDO2 201541Z 16005KT 31/21 A3007 RMK A01 T03120214  RH  056%=      5-min Rain = 0
KDO2 201542Z 14006KT 31/21 A3007 RMK A01 T03130213  RH  055%=      5-min Rain = 0
KDO2 201543Z 15006KT 31/21 A3007 RMK A01 T03140211  RH  054%=      5-min Rain = 0
KDO2 201544Z 17004KT 31/21 A3007 RMK A01 T03140209  RH  054%=      5-min Rain = 0
KDO2 201545Z 14005KT 31/21 A3007 RMK A01 T03140211  RH  054%=      5-min Rain = 0
KDO2 201546Z 14004KT 31/21 A3007 RMK A01 T03140212  RH  055%=      5-min Rain = 0
KDO2 201547Z 12003KT 32/21 A3007 RMK A01 T03150211  RH  054%=      5-min Rain = 0
KDO2 201548Z 13002KT 32/21 A3007 RMK A01 T03150207  RH  053%=      5-min Rain = 0
KDO2 201549Z 14005G10KT 31/21 A3007 RMK A01 T03140210  RH  054%=      5-min Rain = 0
KDO2 201550Z 20007KT 32/22 A3007 RMK A01 T03160215  RH  055%=      5-min Rain = 0
KDO2 201551Z 17007KT 32/21 A3007 RMK A01 T03180211  RH  053%=      5-min Rain = 0
KDO2 201552Z 18007KT 32/21 A3007 RMK A01 T03190210  RH  052%=      5-min Rain = 0
KDO2 201553Z 17006KT 32/21 A3007 RMK A01 T03190206  RH  051%=      5-min Rain = 0
KDO2 201554Z 17004KT 32/21 A3007 RMK A01 T03170206  RH  052%=      5-min Rain = 0
KDO2 201555Z 17006KT 32/21 A3007 RMK A01 T03170213  RH  054%=      5-min Rain = 0
KDO2 201556Z 16008KT 32/21 A3007 RMK A01 T03190208  RH  052%=      5-min Rain = 0
KDO2 201557Z 18006KT 32/21 A3007 RMK A01 T03190210  RH  052%=      5-min Rain = 0
KDO2 201558Z 19006KT 32/21 A3007 RMK A01 T03190207  RH  052%=      5-min Rain = 0
KDO2 201559Z 17005KT 32/21 A3007 RMK A01 T03190207  RH  052%=      5-min Rain = 0
KDO2 201600Z 17004KT 32/21 A3007 RMK A01 T03190206  RH  051%=      5-min Rain = 0
KDO2 201601Z 16004KT 32/21 A3007 RMK A01 T03190208  RH  052%=      5-min Rain = 0
KDO2 201602Z 14006KT 32/21 A3007 RMK A01 T03200208  RH  052%=      5-min Rain = 0
KDO2 201603Z 15007KT 32/20 A3007 RMK A01 T03220204  RH  050%=      5-min Rain = 0
KDO2 201604Z 17007KT 32/21 A3007 RMK A01 T03210205  RH  050%=      5-min Rain = 0
KDO2 201605Z 17006KT 32/21 A3007 RMK A01 T03210206  RH  050%=      5-min Rain = 0
KDO2 201606Z 14010KT 32/21 A3007 RMK A01 T03220207  RH  051%=      5-min Rain = 0
KDO2 201607Z 13008KT 32/21 A3007 RMK A01 T03230206  RH  050%=      5-min Rain = 0
KDO2 201608Z 14008KT 32/21 A3007 RMK A01 T03220209  RH  051%=      5-min Rain = 0
KDO2 201609Z 13005KT 32/21 A3007 RMK A01 T03220207  RH  051%=      5-min Rain = 0
KDO2 201610Z 13005KT 32/21 A3007 RMK A01 T03220207  RH  051%=      5-min Rain = 0
KDO2 201611Z 17009KT 32/21 A3007 RMK A01 T03230211  RH  052%=      5-min Rain = 0
KDO2 201612Z 17008KT 33/21 A3007 RMK A01 T03250208  RH  050%=      5-min Rain = 0
KDO2 201613Z 13007KT 32/21 A3007 RMK A01 T03240209  RH  050%=      5-min Rain = 0
KDO2 201614Z 13007KT 32/21 A3007 RMK A01 T03240207  RH  050%=      5-min Rain = 0
KDO2 201615Z 13005KT 32/21 A3007 RMK A01 T03240208  RH  050%=      5-min Rain = 0
KDO2 201616Z 18006KT 32/21 A3007 RMK A01 T03240212  RH  052%=      5-min Rain = 0
KDO2 201617Z 18007KT 33/21 A3007 RMK A01 T03250210  RH  051%=      5-min Rain = 0
KDO2 201618Z 19004KT 33/21 A3007 RMK A01 T03260209  RH  050%=      5-min Rain = 0
KDO2 201619Z 18003KT 33/21 A3007 RMK A01 T03260206  RH  049%=      5-min Rain = 0
KDO2 201620Z 20004KT 33/20 A3007 RMK A01 T03250204  RH  049%=      5-min Rain = 0
KDO2 201621Z 18008KT 32/21 A3007 RMK A01 T03240206  RH  050%=      5-min Rain = 0
KDO2 201622Z 15007KT 32/21 A3007 RMK A01 T03240207  RH  050%=      5-min Rain = 0
KDO2 201623Z 13007KT 33/21 A3007 RMK A01 T03260205  RH  049%=      5-min Rain = 0
KDO2 201624Z 12008KT 33/21 A3007 RMK A01 T03260205  RH  049%=      5-min Rain = 0
KDO2 201625Z 11006KT 33/20 A3007 RMK A01 T03270204  RH  048%=      5-min Rain = 0
KDO2 201626Z 10004KT 33/20 A3007 RMK A01 T03260200  RH  048%=      5-min Rain = 0
KDO2 201627Z 10004KT 32/20 A3007 RMK A01 T03240202  RH  049%=      5-min Rain = 0
KDO2 201628Z 11004KT 32/21 A3007 RMK A01 T03240205  RH  049%=      5-min Rain = 0
KDO2 201629Z 14008KT 33/21 A3007 RMK A01 T03270209  RH  050%=      5-min Rain = 0
KDO2 201630Z 12008KT 33/21 A3007 RMK A01 T03320210  RH  049%=      5-min Rain = 0
KDO2 201631Z 11006KT 33/21 A3007 RMK A01 T03330207  RH  048%=      5-min Rain = 0
KDO2 201632Z 12005KT 33/21 A3007 RMK A01 T03330207  RH  048%=      5-min Rain = 0
KDO2 201633Z 14005KT 34/20 A3007 RMK A01 T03350200  RH  045%=      5-min Rain = 0
KDO2 201634Z 14004KT 34/20 A3007 RMK A01 T03350204  RH  046%=      5-min Rain = 0
KDO2 201635Z 14003KT 34/21 A3007 RMK A01 T03360209  RH  048%=      5-min Rain = 0
KDO2 201636Z 14009KT 34/21 A3007 RMK A01 T03360208  RH  047%=      5-min Rain = 0
KDO2 201637Z 13010KT 33/21 A3007 RMK A01 T03330205  RH  047%=      5-min Rain = 0
KDO2 201638Z 14006KT 33/20 A3007 RMK A01 T03280200  RH  047%=      5-min Rain = 0
KDO2 201639Z 15007KT 33/20 A3007 RMK A01 T03260200  RH  047%=      5-min Rain = 0
KDO2 201640Z 16009KT 33/20 A3007 RMK A01 T03260203  RH  048%=      5-min Rain = 0
KDO2 201641Z 17009KT 33/21 A3007 RMK A01 T03270205  RH  049%=      5-min Rain = 0
KDO2 201642Z 17007KT 33/20 A3007 RMK A01 T03280200  RH  047%=      5-min Rain = 0
KDO2 201643Z 19009KT 33/20 A3007 RMK A01 T03290202  RH  047%=      5-min Rain = 0
KDO2 201644Z 18010KT 33/20 A3007 RMK A01 T03290203  RH  048%=      5-min Rain = 0
KDO2 201645Z 18008KT 33/21 A3007 RMK A01 T03290205  RH  048%=      5-min Rain = 0
KDO2 201646Z 18007KT 33/21 A3007 RMK A01 T03300205  RH  048%=      5-min Rain = 0
KDO2 201647Z 18005KT 33/20 A3007 RMK A01 T03300203  RH  047%=      5-min Rain = 0
KDO2 201648Z 15004KT 33/20 A3007 RMK A01 T03300203  RH  047%=      5-min Rain = 0
KDO2 201649Z 12009KT 33/20 A3007 RMK A01 T03310203  RH  047%=      5-min Rain = 0
KDO2 201650Z 11007KT 33/20 A3007 RMK A01 T03310196  RH  045%=      5-min Rain = 0
KDO2 201651Z 11010KT 33/20 A3007 RMK A01 T03320203  RH  047%=      5-min Rain = 0
KDO2 201652Z 10009KT 33/20 A3007 RMK A01 T03340201  RH  046%=      5-min Rain = 0
KDO2 201653Z 10009KT 34/20 A3007 RMK A01 T03370203  RH  046%=      5-min Rain = 0
KDO2 201654Z 11007G12KT 34/20 A3007 RMK A01 T03370202  RH  045%=      5-min Rain = 0
KDO2 201655Z 12011KT 34/20 A3007 RMK A01 T03370201  RH  045%=      5-min Rain = 0
KDO2 201656Z 14009KT 34/20 A3006 RMK A01 T03360203  RH  046%=      5-min Rain = 0
KDO2 201657Z 13009KT 34/20 A3007 RMK A01 T03370201  RH  045%=      5-min Rain = 0
KDO2 201658Z 14009KT 34/20 A3006 RMK A01 T03350200  RH  045%=      5-min Rain = 0
KDO2 201659Z 15008KT 33/20 A3006 RMK A01 T03340197  RH  044%=      5-min Rain = 0
KDO2 201700Z 16006KT 33/20 A3006 RMK A01 T03320201  RH  046%=      5-min Rain = 0
KDO2 201701Z 14005KT 34/20 A3006 RMK A01 T03350202  RH  046%=      5-min Rain = 0
KDO2 201702Z 11006KT 34/20 A3006 RMK A01 T03370199  RH  045%=      5-min Rain = 0
KDO2 201703Z 12006KT 34/20 A3006 RMK A01 T03370198  RH  044%=      5-min Rain = 0
KDO2 201704Z 11008KT 34/20 A3006 RMK A01 T03350198  RH  045%=      5-min Rain = 0
KDO2 201705Z 13007KT 33/20 A3006 RMK A01 T03330199  RH  045%=      5-min Rain = 0
KDO2 201706Z 15006KT 33/20 A3006 RMK A01 T03330202  RH  046%=      5-min Rain = 0
KDO2 201707Z 13005KT 34/20 A3006 RMK A01 T03350199  RH  045%=      5-min Rain = 0
KDO2 201708Z 17005KT 34/20 A3006 RMK A01 T03360200  RH  045%=      5-min Rain = 0
KDO2 201709Z 17006KT 34/20 A3006 RMK A01 T03360201  RH  045%=      5-min Rain = 0
KDO2 201710Z 18007KT 34/20 A3006 RMK A01 T03360201  RH  045%=      5-min Rain = 0
KDO2 201711Z 19007KT 33/20 A3006 RMK A01 T03340195  RH  044%=      5-min Rain = 0
KDO2 201712Z 19007KT 33/20 A3006 RMK A01 T03300195  RH  045%=      5-min Rain = 0
KDO2 201713Z 13008KT 33/20 A3006 RMK A01 T03300195  RH  045%=      5-min Rain = 0
KDO2 201714Z 14006KT 33/19 A3006 RMK A01 T03310193  RH  044%=      5-min Rain = 0
KDO2 201715Z 16012KT 33/20 A3006 RMK A01 T03330199  RH  045%=      5-min Rain = 0
KDO2 201716Z 17013KT 34/20 A3006 RMK A01 T03370196  RH  044%=      5-min Rain = 0
KDO2 201717Z 18007KT 34/20 A3006 RMK A01 T03360195  RH  044%=      5-min Rain = 0
KDO2 201718Z 17006G11KT 34/20 A3006 RMK A01 T03350197  RH  044%=      5-min Rain = 0
KDO2 201719Z 17009KT 34/20 A3006 RMK A01 T03370200  RH  045%=      5-min Rain = 0
KDO2 201720Z 15009KT 34/20 A3006 RMK A01 T03390202  RH  045%=      5-min Rain = 0
KDO2 201721Z 12009KT 34/20 A3006 RMK A01 T03410200  RH  044%=      5-min Rain = 0
KDO2 201722Z 11008KT 34/20 A3006 RMK A01 T03410196  RH  043%=      5-min Rain = 0
KDO2 201723Z 11006KT 34/20 A3006 RMK A01 T03400198  RH  043%=      5-min Rain = 0
KDO2 201724Z 09006KT 34/19 A3006 RMK A01 T03400193  RH  042%=      5-min Rain = 0
KDO2 201725Z 16006KT 34/20 A3006 RMK A01 T03380196  RH  043%=      5-min Rain = 0
KDO2 201726Z 13010KT 34/20 A3005 RMK A01 T03390198  RH  044%=      5-min Rain = 0
KDO2 201727Z 11011KT 34/20 A3005 RMK A01 T03400198  RH  043%=      5-min Rain = 0
KDO2 201728Z 11008KT 34/20 A3006 RMK A01 T03420196  RH  042%=      5-min Rain = 0
KDO2 201729Z 14008KT 34/20 A3006 RMK A01 T03410197  RH  043%=      5-min Rain = 0
KDO2 201730Z 15010KT 34/20 A3006 RMK A01 T03410196  RH  043%=      5-min Rain = 0
KDO2 201731Z 15006KT 34/19 A3006 RMK A01 T03400193  RH  042%=      5-min Rain = 0
KDO2 201732Z 16007G13KT 34/20 A3006 RMK A01 T03390198  RH  043%=      5-min Rain = 0
KDO2 201733Z 15011KT 34/19 A3006 RMK A01 T03420194  RH  042%=      5-min Rain = 0
KDO2 201734Z 15009KT 34/19 A3006 RMK A01 T03430192  RH  041%=      5-min Rain = 0
KDO2 201735Z 17008KT 34/19 A3006 RMK A01 T03430194  RH  042%=      5-min Rain = 0
KDO2 201736Z 17006KT 34/19 A3006 RMK A01 T03440194  RH  041%=      5-min Rain = 0
KDO2 201737Z 16004KT 34/19 A3006 RMK A01 T03430190  RH  040%=      5-min Rain = 0
KDO2 201738Z 13008KT 34/19 A3006 RMK A01 T03420194  RH  042%=      5-min Rain = 0
KDO2 201739Z 10008KT 34/20 A3006 RMK A01 T03440196  RH  042%=      5-min Rain = 0
KDO2 201740Z 10009KT 35/20 A3006 RMK A01 T03460197  RH  042%=      5-min Rain = 0
KDO2 201741Z 09010KT 35/20 A3005 RMK A01 T03470198  RH  042%=      5-min Rain = 0
KDO2 201742Z 10011KT 35/20 A3005 RMK A01 T03480195  RH  041%=      5-min Rain = 0
KDO2 201743Z 10006KT 34/19 A3005 RMK A01 T03430191  RH  041%=      5-min Rain = 0
KDO2 201744Z 09005G10KT 34/20 A3005 RMK A01 T03380195  RH  043%=      5-min Rain = 0
KDO2 201745Z 09010KT 34/20 A3005 RMK A01 T03400196  RH  043%=      5-min Rain = 0
KDO2 201746Z 10007KT 34/20 A3005 RMK A01 T03430195  RH  042%=      5-min Rain = 0
KDO2 201747Z 16009KT 34/20 A3005 RMK A01 T03440195  RH  042%=      5-min Rain = 0
KDO2 201748Z 16009KT 35/19 A3005 RMK A01 T03450194  RH  041%=      5-min Rain = 0
KDO2 201749Z 15010KT 35/20 A3005 RMK A01 T03470196  RH  041%=      5-min Rain = 0
KDO2 201750Z 14009KT 35/19 A3005 RMK A01 T03480192  RH  040%=      5-min Rain = 0
KDO2 201751Z 13010KT 35/19 A3005 RMK A01 T03480192  RH  040%=      5-min Rain = 0
KDO2 201752Z 15011KT 35/19 A3005 RMK A01 T03470191  RH  040%=      5-min Rain = 0
KDO2 201753Z 14006KT 35/19 A3005 RMK A01 T03450189  RH  040%=      5-min Rain = 0
KDO2 201754Z 14008KT 34/19 A3005 RMK A01 T03440188  RH  040%=      5-min Rain = 0
KDO2 201755Z 17007KT 34/19 A3005 RMK A01 T03440193  RH  041%=      5-min Rain = 0
KDO2 201756Z 18006KT 35/19 A3005 RMK A01 T03450188  RH  039%=      5-min Rain = 0
KDO2 201757Z 18004KT 35/19 A3005 RMK A01 T03450192  RH  041%=      5-min Rain = 0
KDO2 201758Z 11003KT 35/19 A3005 RMK A01 T03480188  RH  039%=      5-min Rain = 0
KDO2 201759Z 11005KT 35/19 A3005 RMK A01 T03480191  RH  040%=      5-min Rain = 0
KDO2 201800Z 11006KT 35/19 A3005 RMK A01 T03470188  RH  039%=      5-min Rain = 0
KDO2 201801Z 12006KT 35/19 A3005 RMK A01 T03460188  RH  039%=      5-min Rain = 0
KDO2 201802Z 13009KT 35/19 A3005 RMK A01 T03480188  RH  039%=      5-min Rain = 0
KDO2 201803Z 13013KT 35/18 A3005 RMK A01 T03490184  RH  038%=      5-min Rain = 0
KDO2 201804Z 14010KT 35/18 A3005 RMK A01 T03490184  RH  038%=      5-min Rain = 0
KDO2 201805Z 13012KT 35/19 A3005 RMK A01 T03480187  RH  039%=      5-min Rain = 0
KDO2 201806Z 11010KT 35/19 A3005 RMK A01 T03480187  RH  039%=      5-min Rain = 0
KDO2 201807Z 11008KT 35/19 A3005 RMK A01 T03490186  RH  038%=      5-min Rain = 0
KDO2 201808Z 12007KT 35/19 A3005 RMK A01 T03490188  RH  039%=      5-min Rain = 0
KDO2 201809Z 14008KT 35/19 A3005 RMK A01 T03490189  RH  039%=      5-min Rain = 0
KDO2 201810Z 14007G12KT 35/19 A3005 RMK A01 T03500187  RH  038%=      5-min Rain = 0
KDO2 201811Z 13007G12KT 35/19 A3005 RMK A01 T03480185  RH  038%=      5-min Rain = 0
KDO2 201812Z 13004KT 35/19 A3005 RMK A01 T03470189  RH  040%=      5-min Rain = 0
KDO2 201813Z 14005KT 35/19 A3005 RMK A01 T03490186  RH  038%=      5-min Rain = 0
KDO2 201814Z 16011G17KT 35/19 A3004 RMK A01 T03500190  RH  039%=      5-min Rain = 0
KDO2 201815Z 17008KT 35/19 A3004 RMK A01 T03500191  RH  039%=      5-min Rain = 0
KDO2 201816Z 15007KT 35/19 A3005 RMK A01 T03520194  RH  040%=      5-min Rain = 0
KDO2 201817Z 16008KT 35/19 A3005 RMK A01 T03540189  RH  038%=      5-min Rain = 0
KDO2 201818Z 13007KT 35/19 A3005 RMK A01 T03530191  RH  038%=      5-min Rain = 0
KDO2 201819Z 12007KT 36/19 A3005 RMK A01 T03550190  RH  038%=      5-min Rain = 0
KDO2 201820Z 12005KT 36/19 A3004 RMK A01 T03560186  RH  037%=      5-min Rain = 0
KDO2 201821Z 14005KT 35/19 A3005 RMK A01 T03530185  RH  037%=      5-min Rain = 0
KDO2 201822Z 15009G17KT 35/19 A3004 RMK A01 T03530190  RH  039%=      5-min Rain = 0
KDO2 201823Z 13010G17KT 36/19 A3005 RMK A01 T03560186  RH  037%=      5-min Rain = 0
KDO2 201824Z 14005KT 36/19 A3005 RMK A01 T03560190  RH  038%=      5-min Rain = 0
KDO2 201825Z 13006KT 36/18 A3004 RMK A01 T03580183  RH  036%=      5-min Rain = 0
KDO2 201826Z 16008KT 36/19 A3004 RMK A01 T03550186  RH  037%=      5-min Rain = 0
KDO2 201827Z 18008KT 35/18 A3004 RMK A01 T03520183  RH  037%=      5-min Rain = 0
KDO2 201828Z 18008KT 35/18 A3004 RMK A01 T03500184  RH  038%=      5-min Rain = 0
KDO2 201829Z 18010KT 35/18 A3004 RMK A01 T03520184  RH  037%=      5-min Rain = 0
KDO2 201830Z 19009KT 35/19 A3004 RMK A01 T03530185  RH  037%=      5-min Rain = 0
KDO2 201831Z 18007KT 35/19 A3004 RMK A01 T03540187  RH  038%=      5-min Rain = 0
KDO2 201832Z 19007KT 36/19 A3004 RMK A01 T03570187  RH  037%=      5-min Rain = 0
KDO2 201833Z 19009KT 36/19 A3004 RMK A01 T03560186  RH  037%=      5-min Rain = 0
KDO2 201834Z 15009KT 35/19 A3004 RMK A01 T03540185  RH  037%=      5-min Rain = 0
KDO2 201835Z 16008KT 35/18 A3004 RMK A01 T03530182  RH  036%=      5-min Rain = 0
KDO2 201836Z 18008KT 35/18 A3004 RMK A01 T03510181  RH  037%=      5-min Rain = 0
KDO2 201837Z 18008KT 35/18 A3004 RMK A01 T03500182  RH  037%=      5-min Rain = 0
KDO2 201838Z 19010KT 35/18 A3004 RMK A01 T03500184  RH  038%=      5-min Rain = 0
KDO2 201839Z 18009KT 35/18 A3004 RMK A01 T03500182  RH  037%=      5-min Rain = 0
KDO2 201840Z 17012KT 35/18 A3004 RMK A01 T03490182  RH  037%=      5-min Rain = 0
KDO2 201841Z 17009KT 35/18 A3004 RMK A01 T03490182  RH  037%=      5-min Rain = 0
KDO2 201842Z 19007KT 35/18 A3004 RMK A01 T03490183  RH  038%=      5-min Rain = 0
KDO2 201843Z 17006KT 35/18 A3004 RMK A01 T03500183  RH  037%=      5-min Rain = 0
KDO2 201844Z 15006KT 35/19 A3004 RMK A01 T03510186  RH  038%=      5-min Rain = 0
KDO2 201845Z 17007KT 35/19 A3004 RMK A01 T03540187  RH  038%=      5-min Rain = 0
KDO2 201846Z 16006KT 36/18 A3004 RMK A01 T03550183  RH  036%=      5-min Rain = 0
KDO2 201847Z 15006KT 36/19 A3004 RMK A01 T03560185  RH  037%=      5-min Rain = 0
KDO2 201848Z 16005KT 36/18 A3004 RMK A01 T03590184  RH  036%=      5-min Rain = 0
KDO2 201849Z 19005KT 36/18 A3004 RMK A01 T03600180  RH  035%=      5-min Rain = 0
KDO2 201850Z 16005KT 36/18 A3004 RMK A01 T03580182  RH  035%=      5-min Rain = 0
KDO2 201851Z 15010KT 36/18 A3004 RMK A01 T03580183  RH  036%=      5-min Rain = 0
KDO2 201852Z 14008KT 36/18 A3003 RMK A01 T03560184  RH  036%=      5-min Rain = 0
KDO2 201853Z 12006KT 36/19 A3004 RMK A01 T03550188  RH  037%=      5-min Rain = 0
KDO2 201854Z 12008KT 36/19 A3003 RMK A01 T03570188  RH  037%=      5-min Rain = 0
KDO2 201855Z 09004KT 36/19 A3003 RMK A01 T03570185  RH  036%=      5-min Rain = 0
KDO2 201856Z 14005KT 36/19 A3003 RMK A01 T03570185  RH  036%=      5-min Rain = 0
KDO2 201857Z 17004KT 36/18 A3003 RMK A01 T03570179  RH  035%=      5-min Rain = 0
KDO2 201858Z 14004KT 36/18 A3003 RMK A01 T03550180  RH  036%=      5-min Rain = 0
KDO2 201859Z 16006KT 36/18 A3003 RMK A01 T03570184  RH  036%=      5-min Rain = 0
KDO2 201900Z 15010KT 36/18 A3003 RMK A01 T03590181  RH  035%=      5-min Rain = 0
KDO2 201901Z 15011KT 36/18 A3003 RMK A01 T03590181  RH  035%=      5-min Rain = 0
KDO2 201902Z 13011KT 36/18 A3003 RMK A01 T03620180  RH  034%=      5-min Rain = 0
KDO2 201903Z 12009KT 36/18 A3003 RMK A01 T03620179  RH  034%=      5-min Rain = 0
KDO2 201904Z 14009KT 36/18 A3003 RMK A01 T03610181  RH  035%=      5-min Rain = 0
KDO2 201905Z 13010KT 36/18 A3003 RMK A01 T03600182  RH  035%=      5-min Rain = 0
KDO2 201906Z 13010KT 36/18 A3003 RMK A01 T03600180  RH  035%=      5-min Rain = 0
KDO2 201907Z 12007KT 36/18 A3003 RMK A01 T03560178  RH  035%=      5-min Rain = 0
KDO2 201908Z 16010G15KT 36/18 A3003 RMK A01 T03560184  RH  036%=      5-min Rain = 0
KDO2 201909Z 16008KT 36/18 A3003 RMK A01 T03580180  RH  035%=      5-min Rain = 0
KDO2 201910Z 18007KT 36/18 A3003 RMK A01 T03590180  RH  035%=      5-min Rain = 0
KDO2 201911Z 16010KT 36/18 A3003 RMK A01 T03600182  RH  035%=      5-min Rain = 0
KDO2 201912Z 19007KT 36/18 A3003 RMK A01 T03600175  RH  034%=      5-min Rain = 0
KDO2 201913Z 19008KT 36/18 A3003 RMK A01 T03580178  RH  035%=      5-min Rain = 0
KDO2 201914Z 18005KT 36/18 A3003 RMK A01 T03570177  RH  035%=      5-min Rain = 0
KDO2 201915Z 17005KT 36/18 A3003 RMK A01 T03570177  RH  035%=      5-min Rain = 0
KDO2 201916Z 14006KT 36/18 A3003 RMK A01 T03580177  RH  034%=      5-min Rain = 0
KDO2 201917Z 15008KT 36/18 A3002 RMK A01 T03590176  RH  034%=      5-min Rain = 0
KDO2 201918Z 17008KT 36/18 A3002 RMK A01 T03590178  RH  034%=      5-min Rain = 0
KDO2 201919Z 13010KT 36/18 A3003 RMK A01 T03610179  RH  034%=      5-min Rain = 0
KDO2 201920Z 14007KT 36/17 A3003 RMK A01 T03640172  RH  032%=      5-min Rain = 0
KDO2 201921Z 12004KT 37/17 A3002 RMK A01 T03650166  RH  031%=      5-min Rain = 0
KDO2 201922Z 11007G14KT 36/17 A3002 RMK A01 T03630169  RH  032%=      5-min Rain = 0
KDO2 201923Z 12010KT 36/17 A3002 RMK A01 T03630174  RH  033%=      5-min Rain = 0
KDO2 201924Z 11011KT 37/18 A3002 RMK A01 T03660178  RH  033%=      5-min Rain = 0
KDO2 201925Z 12011KT 37/18 A3003 RMK A01 T03700176  RH  032%=      5-min Rain = 0
KDO2 201926Z 12007G12KT 37/18 A3003 RMK A01 T03680175  RH  032%=      5-min Rain = 0
KDO2 201927Z 11007KT 37/18 A3003 RMK A01 T03660176  RH  033%=      5-min Rain = 0
KDO2 201928Z 09009KT 37/17 A3003 RMK A01 T03650173  RH  032%=      5-min Rain = 0
KDO2 201929Z 11008KT 36/18 A3003 RMK A01 T03640175  RH  033%=      5-min Rain = 0
KDO2 201930Z 11006KT 37/18 A3003 RMK A01 T03680179  RH  033%=      5-min Rain = 0
KDO2 201931Z 12009KT 37/18 A3003 RMK A01 T03710176  RH  032%=      5-min Rain = 0
KDO2 201932Z 12009KT 37/18 A3003 RMK A01 T03690178  RH  033%=      5-min Rain = 0
KDO2 201933Z 12006KT 37/18 A3003 RMK A01 T03670175  RH  032%=      5-min Rain = 0
KDO2 201934Z 08004KT 36/17 A3002 RMK A01 T03620172  RH  033%=      5-min Rain = 0
KDO2 201935Z 06004KT 36/17 A3002 RMK A01 T03600172  RH  033%=      5-min Rain = 0
KDO2 201936Z 12004KT 36/17 A3002 RMK A01 T03600173  RH  033%=      5-min Rain = 0
KDO2 201937Z 09007KT 36/17 A3002 RMK A01 T03620174  RH  033%=      5-min Rain = 0
KDO2 201938Z 08006KT 36/18 A3002 RMK A01 T03600175  RH  034%=      5-min Rain = 0
KDO2 201939Z 09005KT 36/17 A3002 RMK A01 T03560173  RH  034%=      5-min Rain = 0
KDO2 201940Z 13006KT 36/17 A3002 RMK A01 T03550174  RH  034%=      5-min Rain = 0
KDO2 201941Z 12013KT 36/18 A3002 RMK A01 T03550176  RH  035%=      5-min Rain = 0
KDO2 201942Z 11011KT 36/18 A3002 RMK A01 T03550176  RH  035%=      5-min Rain = 0
KDO2 201943Z 11010KT 35/18 A3002 RMK A01 T03530175  RH  035%=      5-min Rain = 0
KDO2 201944Z 10009KT 35/17 A3002 RMK A01 T03520174  RH  035%=      5-min Rain = 0
KDO2 201945Z 10007KT 35/17 A3002 RMK A01 T03520173  RH  035%=      5-min Rain = 0
KDO2 201946Z 08006KT 35/18 A3002 RMK A01 T03510175  RH  035%=      5-min Rain = 0
KDO2 201947Z 06006KT 35/17 A3002 RMK A01 T03540174  RH  035%=      5-min Rain = 0
KDO2 201948Z 06006KT 36/18 A3002 RMK A01 T03550183  RH  036%=      5-min Rain = 0
KDO2 201949Z 04004KT 36/18 A3002 RMK A01 T03580179  RH  035%=      5-min Rain = 0
KDO2 201950Z 08004KT 36/18 A3002 RMK A01 T03590181  RH  035%=      5-min Rain = 0
KDO2 201951Z 15011G17KT 36/18 A3002 RMK A01 T03610180  RH  034%=      5-min Rain = 0
KDO2 201952Z 14009KT 37/18 A3002 RMK A01 T03650176  RH  033%=      5-min Rain = 0
KDO2 201953Z 12008KT 37/18 A3002 RMK A01 T03680181  RH  033%=      5-min Rain = 0
KDO2 201954Z 11009KT 37/18 A3002 RMK A01 T03710177  RH  032%=      5-min Rain = 0
KDO2 201955Z 11009KT 37/17 A3002 RMK A01 T03700173  RH  031%=      5-min Rain = 0
KDO2 201956Z 10009KT 37/17 A3001 RMK A01 T03660169  RH  031%=      5-min Rain = 0
KDO2 201957Z 10011KT 36/17 A3001 RMK A01 T03620171  RH  032%=      5-min Rain = 0
KDO2 201958Z 09010KT 36/17 A3001 RMK A01 T03600171  RH  033%=      5-min Rain = 0
KDO2 201959Z 08009KT 36/17 A3001 RMK A01 T03580171  RH  033%=      5-min Rain = 0
KDO2 202000Z 11011KT 35/17 A3001 RMK A01 T03540172  RH  034%=      5-min Rain = 0
KDO2 202001Z 11010KT 35/17 A3001 RMK A01 T03540172  RH  034%=      5-min Rain = 0
KDO2 202002Z 12010KT 35/17 A3001 RMK A01 T03530170  RH  034%=      5-min Rain = 0
KDO2 202003Z 12010KT 36/17 A3001 RMK A01 T03550173  RH  034%=      5-min Rain = 0
KDO2 202004Z 12009KT 36/17 A3001 RMK A01 T03570174  RH  034%=      5-min Rain = 0
KDO2 202005Z 11010KT 36/17 A3001 RMK A01 T03600172  RH  033%=      5-min Rain = 0
KDO2 202006Z 11007KT 36/17 A3001 RMK A01 T03600172  RH  033%=      5-min Rain = 0
KDO2 202007Z 11007KT 36/17 A3001 RMK A01 T03600173  RH  033%=      5-min Rain = 0
KDO2 202008Z 15007KT 36/17 A3001 RMK A01 T03610173  RH  033%=      5-min Rain = 0
KDO2 202009Z 17006KT 36/18 A3001 RMK A01 T03620175  RH  033%=      5-min Rain = 0
KDO2 202010Z 17002KT 36/17 A3001 RMK A01 T03630168  RH  032%=      5-min Rain = 0
KDO2 202011Z 20005KT 36/18 A30 RMK A01 T03630175  RH  033%=      5-min Rain = 0
KDO2 202012Z 13006KT 37/18 A30 RMK A01 T03650178  RH  033%=      5-min Rain = 0
KDO2 202013Z 12006G13KT 37/17 A30 RMK A01 T03660174  RH  032%=      5-min Rain = 0
KDO2 202014Z 11011KT 37/18 A30 RMK A01 T03650176  RH  033%=      5-min Rain = 0
KDO2 202015Z 12010KT 36/18 A30 RMK A01 T03640176  RH  033%=      5-min Rain = 0
KDO2 202016Z 11009KT 36/18 A30 RMK A01 T03640176  RH  033%=      5-min Rain = 0
KDO2 202017Z 12008KT 36/18 A30 RMK A01 T03640176  RH  033%=      5-min Rain = 0
KDO2 202018Z 10005KT 36/17 A30 RMK A01 T03630173  RH  033%=      5-min Rain = 0
KDO2 202019Z 07008KT 36/17 A30 RMK A01 T03610174  RH  033%=      5-min Rain = 0
KDO2 202020Z 06007KT 36/18 A30 RMK A01 T03610177  RH  034%=      5-min Rain = 0
KDO2 202021Z 05006KT 36/17 A30 RMK A01 T03600174  RH  034%=      5-min Rain = 0
KDO2 202022Z 02003KT 36/18 A30 RMK A01 T03590176  RH  034%=      5-min Rain = 0
KDO2 202023Z 06002KT 36/18 A30 RMK A01 T03600175  RH  034%=      5-min Rain = 0
KDO2 202024Z 02002KT 36/17 A30 RMK A01 T03640174  RH  033%=      5-min Rain = 0
KDO2 202025Z 10007KT 37/17 A30 RMK A01 T03660172  RH  032%=      5-min Rain = 0
KDO2 202026Z 09012KT 37/17 A30 RMK A01 T03660168  RH  031%=      5-min Rain = 0
KDO2 202027Z 08011KT 36/17 A30 RMK A01 T03630169  RH  032%=      5-min Rain = 0
KDO2 202028Z 09010KT 36/17 A30 RMK A01 T03610168  RH  032%=      5-min Rain = 0
KDO2 202029Z 09009KT 36/16 A30 RMK A01 T03610164  RH  031%=      5-min Rain = 0
KDO2 202030Z 07006KT 36/16 A30 RMK A01 T03630164  RH  031%=      5-min Rain = 0
KDO2 202031Z 05006KT 36/16 A30 RMK A01 T03630164  RH  031%=      5-min Rain = 0
KDO2 202032Z 04004KT 36/16 A30 RMK A01 T03600163  RH  031%=      5-min Rain = 0
KDO2 202033Z 07004KT 36/17 A30 RMK A01 T03590165  RH  032%=      5-min Rain = 0
KDO2 202034Z 11006KT 36/17 A30 RMK A01 T03600169  RH  032%=      5-min Rain = 0
KDO2 202035Z 12010KT 37/17 A30 RMK A01 T03650174  RH  032%=      5-min Rain = 0
KDO2 202036Z 13011KT 37/17 A30 RMK A01 T03670170  RH  031%=      5-min Rain = 0
KDO2 202037Z 13010KT 37/17 A30 RMK A01 T03670170  RH  031%=      5-min Rain = 0
KDO2 202038Z 11009KT 37/17 A2999 RMK A01 T03660169  RH  031%=      5-min Rain = 0
KDO2 202039Z 15008KT 37/17 A2999 RMK A01 T03650170  RH  032%=      5-min Rain = 0
KDO2 202040Z 14008KT 36/17 A2999 RMK A01 T03630170  RH  032%=      5-min Rain = 0
KDO2 202041Z 14008KT 36/17 A2999 RMK A01 T03620168  RH  032%=      5-min Rain = 0
KDO2 202042Z 14009KT 36/16 A2999 RMK A01 T03600162  RH  031%=      5-min Rain = 0
KDO2 202043Z 15008KT 36/16 A2999 RMK A01 T03600159  RH  030%=      5-min Rain = 0
KDO2 202044Z 16006KT 36/16 A2999 RMK A01 T03620158  RH  030%=      5-min Rain = 0
KDO2 202045Z 16006KT 36/16 A2999 RMK A01 T03630160  RH  030%=      5-min Rain = 0
KDO2 202046Z 15004KT 37/17 A2999 RMK A01 T03650167  RH  031%=      5-min Rain = 0
KDO2 202047Z 14005KT 37/17 A2999 RMK A01 T03700170  RH  031%=      5-min Rain = 0
KDO2 202048Z 13005KT 37/16 A2999 RMK A01 T03720164  RH  029%=      5-min Rain = 0
KDO2 202049Z 13009KT 37/17 A2999 RMK A01 T03720168  RH  030%=      5-min Rain = 0
KDO2 202050Z 12010KT 37/17 A2999 RMK A01 T03720170  RH  030%=      5-min Rain = 0
KDO2 202051Z 14008KT 37/17 A2999 RMK A01 T03710169  RH  030%=      5-min Rain = 0
KDO2 202052Z 11009KT 37/17 A2999 RMK A01 T03710169  RH  030%=      5-min Rain = 0
KDO2 202053Z 10009KT 37/17 A2999 RMK A01 T03720167  RH  030%=      5-min Rain = 0
KDO2 202054Z 13008KT 37/17 A2999 RMK A01 T03720170  RH  031%=      5-min Rain = 0
KDO2 202055Z 15008KT 37/17 A2999 RMK A01 T03730171  RH  030%=      5-min Rain = 0
KDO2 202056Z 14008KT 37/17 A2999 RMK A01 T03740166  RH  029%=      5-min Rain = 0
KDO2 202057Z 11007KT 37/16 A2999 RMK A01 T03730163  RH  029%=      5-min Rain = 0
KDO2 202058Z 14010KT 37/17 A2999 RMK A01 T03710165  RH  030%=      5-min Rain = 0
KDO2 202059Z 15009KT 37/16 A2998 RMK A01 T03700164  RH  030%=      5-min Rain = 0
KDO2 202100Z 14009KT 37/16 A2998 RMK A01 T03700164  RH  030%=      5-min Rain = 0
KDO2 202101Z 13008KT 37/16 A2998 RMK A01 T03690164  RH  030%=      5-min Rain = 0
KDO2 202102Z 13007KT 37/17 A2998 RMK A01 T03700166  RH  030%=      5-min Rain = 0
KDO2 202103Z 11006KT 37/17 A2998 RMK A01 T03710165  RH  030%=      5-min Rain = 0
KDO2 202104Z 07009KT 37/17 A2998 RMK A01 T03730166  RH  030%=      5-min Rain = 0
KDO2 202105Z 10008KT 37/16 A2998 RMK A01 T03710162  RH  029%=      5-min Rain = 0
KDO2 202106Z 09005KT 37/16 A2998 RMK A01 T03690162  RH  029%=      5-min Rain = 0
KDO2 202107Z 11005KT 37/16 A2998 RMK A01 T03690161  RH  029%=      5-min Rain = 0
KDO2 202108Z 12008G13KT 37/16 A2998 RMK A01 T03690164  RH  030%=      5-min Rain = 0
KDO2 202109Z 11012KT 37/16 A2998 RMK A01 T03700162  RH  029%=      5-min Rain = 0
KDO2 202110Z 10013KT 37/16 A2998 RMK A01 T03710160  RH  029%=      5-min Rain = 0
KDO2 202111Z 11012KT 37/16 A2998 RMK A01 T03710163  RH  029%=      5-min Rain = 0
KDO2 202112Z 12009KT 37/16 A2998 RMK A01 T03700158  RH  029%=      5-min Rain = 0
KDO2 202113Z 11011KT 37/16 A2998 RMK A01 T03680163  RH  030%=      5-min Rain = 0
KDO2 202114Z 10008KT 37/16 A2998 RMK A01 T03690160  RH  029%=      5-min Rain = 0
KDO2 202115Z 08005KT 37/16 A2998 RMK A01 T03680160  RH  029%=      5-min Rain = 0
KDO2 202116Z 06006KT 37/16 A2998 RMK A01 T03680164  RH  030%=      5-min Rain = 0
KDO2 202117Z 09003KT 37/17 A2998 RMK A01 T03680165  RH  030%=      5-min Rain = 0
KDO2 202118Z 08006KT 37/17 A2998 RMK A01 T03700166  RH  030%=      5-min Rain = 0
KDO2 202119Z 07003KT 37/16 A2997 RMK A01 T03700163  RH  029%=      5-min Rain = 0
KDO2 202120Z 04003KT 37/17 A2997 RMK A01 T03700166  RH  030%=      5-min Rain = 0
KDO2 202121Z 05003KT 37/17 A2997 RMK A01 T03690171  RH  031%=      5-min Rain = 0
KDO2 202122Z 08005KT 37/17 A2997 RMK A01 T03700168  RH  030%=      5-min Rain = 0
KDO2 202123Z 09006KT 37/17 A2997 RMK A01 T03710168  RH  030%=      5-min Rain = 0
KDO2 202124Z 11004KT 37/16 A2997 RMK A01 T03730158  RH  028%=      5-min Rain = 0
KDO2 202125Z 10005KT 37/16 A2997 RMK A01 T03730159  RH  028%=      5-min Rain = 0
KDO2 202126Z 13006KT 37/16 A2997 RMK A01 T03730162  RH  029%=      5-min Rain = 0
KDO2 202127Z 12009KT 37/16 A2997 RMK A01 T03740160  RH  028%=      5-min Rain = 0
KDO2 202128Z 10006KT 37/16 A2997 RMK A01 T03720157  RH  028%=      5-min Rain = 0
KDO2 202129Z 11008KT 37/16 A2997 RMK A01 T03710160  RH  029%=      5-min Rain = 0
KDO2 202130Z 08010KT 37/16 A2997 RMK A01 T03720157  RH  028%=      5-min Rain = 0
KDO2 202131Z 09009KT 37/16 A2997 RMK A01 T03720156  RH  028%=      5-min Rain = 0
KDO2 202132Z 11007KT 37/15 A2997 RMK A01 T03720152  RH  027%=      5-min Rain = 0
KDO2 202133Z 10008KT 37/16 A2997 RMK A01 T03730159  RH  028%=      5-min Rain = 0
KDO2 202134Z 11012KT 37/16 A2997 RMK A01 T03740157  RH  028%=      5-min Rain = 0
KDO2 202135Z 10010KT 37/16 A2997 RMK A01 T03720158  RH  028%=      5-min Rain = 0
KDO2 202136Z 09008KT 37/16 A2997 RMK A01 T03720156  RH  028%=      5-min Rain = 0
KDO2 202137Z 08008KT 37/16 A2997 RMK A01 T03720160  RH  029%=      5-min Rain = 0
KDO2 202138Z 10009KT 37/16 A2997 RMK A01 T03730156  RH  028%=      5-min Rain = 0
KDO2 202139Z 12008KT 37/15 A2997 RMK A01 T03740151  RH  027%=      5-min Rain = 0
KDO2 202140Z 13005KT 37/15 A2997 RMK A01 T03730150  RH  027%=      5-min Rain = 0
KDO2 202141Z 13006KT 37/16 A2997 RMK A01 T03730158  RH  028%=      5-min Rain = 0
KDO2 202142Z 11007KT 37/16 A2997 RMK A01 T03740157  RH  028%=      5-min Rain = 0
KDO2 202143Z 11009KT 37/16 A2997 RMK A01 T03740156  RH  028%=      5-min Rain = 0
KDO2 202144Z 11009KT 37/16 A2997 RMK A01 T03740159  RH  028%=      5-min Rain = 0
KDO2 202145Z 10006KT 37/16 A2997 RMK A01 T03740161  RH  028%=      5-min Rain = 0
KDO2 202146Z 11002KT 37/16 A2997 RMK A01 T03740156  RH  028%=      5-min Rain = 0
KDO2 202147Z 10003KT 37/16 A2997 RMK A01 T03740155  RH  027%=      5-min Rain = 0
KDO2 202148Z 08003KT 37/17 A2997 RMK A01 T03740166  RH  029%=      5-min Rain = 0
KDO2 202149Z 06005KT 37/16 A2997 RMK A01 T03740163  RH  029%=      5-min Rain = 0
KDO2 202150Z 07007KT 37/16 A2996 RMK A01 T03740164  RH  029%=      5-min Rain = 0
KDO2 202151Z 14009KT 37/16 A2996 RMK A01 T03740162  RH  029%=      5-min Rain = 0
KDO2 202152Z 12008KT 38/16 A2996 RMK A01 T03750158  RH  028%=      5-min Rain = 0
KDO2 202153Z 15012G17KT 38/16 A2996 RMK A01 T03760162  RH  028%=      5-min Rain = 0
KDO2 202154Z 14013KT 38/16 A2997 RMK A01 T03770159  RH  028%=      5-min Rain = 0
KDO2 202155Z 13012KT 37/16 A2997 RMK A01 T03740161  RH  028%=      5-min Rain = 0
KDO2 202156Z 12011KT 37/16 A2997 RMK A01 T03720155  RH  028%=      5-min Rain = 0
KDO2 202157Z 12011KT 37/16 A2997 RMK A01 T03710158  RH  028%=      5-min Rain = 0
KDO2 202158Z 11010KT 37/16 A2997 RMK A01 T03720158  RH  028%=      5-min Rain = 0
KDO2 202159Z 12010KT 37/16 A2997 RMK A01 T03740156  RH  028%=      5-min Rain = 0
KDO2 202200Z 12006KT 37/15 A2997 RMK A01 T03720150  RH  027%=      5-min Rain = 0
KDO2 202201Z 11007KT 37/16 A2996 RMK A01 T03710155  RH  028%=      5-min Rain = 0
KDO2 202202Z 11009KT 37/15 A2996 RMK A01 T03730154  RH  027%=      5-min Rain = 0
KDO2 202203Z 12008KT 37/16 A2997 RMK A01 T03740158  RH  028%=      5-min Rain = 0
KDO2 202204Z 12007KT 38/16 A2997 RMK A01 T03770158  RH  028%=      5-min Rain = 0
KDO2 202205Z 11007KT 38/16 A2997 RMK A01 T03780155  RH  027%=      5-min Rain = 0
KDO2 202206Z 15006KT 38/15 A2997 RMK A01 T03770152  RH  026%=      5-min Rain = 0
KDO2 202207Z 12007KT 38/16 A2996 RMK A01 T03760156  RH  027%=      5-min Rain = 0
KDO2 202208Z 10008KT 38/16 A2996 RMK A01 T03760156  RH  027%=      5-min Rain = 0
KDO2 202209Z 11008KT 38/16 A2996 RMK A01 T03760160  RH  028%=      5-min Rain = 0
KDO2 202210Z 12006KT 38/15 A2996 RMK A01 T03760154  RH  027%=      5-min Rain = 0
KDO2 202211Z 15004KT 37/16 A2996 RMK A01 T03740157  RH  028%=      5-min Rain = 0
KDO2 202212Z 10004KT 37/16 A2996 RMK A01 T03740161  RH  029%=      5-min Rain = 0
KDO2 202213Z 08005KT 38/16 A2996 RMK A01 T03760158  RH  028%=      5-min Rain = 0
KDO2 202214Z 09010KT 38/16 A2996 RMK A01 T03760159  RH  028%=      5-min Rain = 0
KDO2 202215Z 09009KT 38/16 A2996 RMK A01 T03760161  RH  028%=      5-min Rain = 0
KDO2 202216Z 12011KT 38/16 A2996 RMK A01 T03760157  RH  027%=      5-min Rain = 0
KDO2 202217Z 12011KT 38/16 A2996 RMK A01 T03750159  RH  028%=      5-min Rain = 0
KDO2 202218Z 10009KT 37/16 A2996 RMK A01 T03740160  RH  028%=      5-min Rain = 0
KDO2 202219Z 14009KT 38/17 A2996 RMK A01 T03760165  RH  029%=      5-min Rain = 0
KDO2 202220Z 13010G15KT 38/16 A2996 RMK A01 T03780160  RH  028%=      5-min Rain = 0
KDO2 202221Z 13012KT 38/16 A2996 RMK A01 T03750156  RH  027%=      5-min Rain = 0
KDO2 202222Z 13008KT 37/16 A2996 RMK A01 T03720156  RH  028%=      5-min Rain = 0
KDO2 202223Z 14008KT 37/16 A2996 RMK A01 T03700155  RH  028%=      5-min Rain = 0
KDO2 202224Z 14008KT 37/15 A2996 RMK A01 T03680154  RH  028%=      5-min Rain = 0
KDO2 202225Z 13007KT 37/16 A2996 RMK A01 T03670156  RH  029%=      5-min Rain = 0
KDO2 202226Z 12007KT 37/16 A2996 RMK A01 T03670161  RH  030%=      5-min Rain = 0
KDO2 202227Z 10007KT 37/16 A2996 RMK A01 T03700156  RH  028%=      5-min Rain = 0
KDO2 202228Z 11005KT 37/15 A2996 RMK A01 T03700153  RH  028%=      5-min Rain = 0
KDO2 202229Z 12004KT 37/16 A2996 RMK A01 T03690160  RH  029%=      5-min Rain = 0
KDO2 202230Z 12004KT 37/16 A2996 RMK A01 T03710161  RH  029%=      5-min Rain = 0
KDO2 202231Z 15004KT 37/16 A2996 RMK A01 T03730163  RH  029%=      5-min Rain = 0
KDO2 202232Z 14009KT 38/16 A2996 RMK A01 T03750164  RH  029%=      5-min Rain = 0
KDO2 202233Z 14007KT 38/16 A2996 RMK A01 T03750159  RH  028%=      5-min Rain = 0
KDO2 202234Z 13009KT 37/16 A2996 RMK A01 T03740163  RH  029%=      5-min Rain = 0
KDO2 202235Z 13006KT 37/16 A2996 RMK A01 T03730159  RH  028%=      5-min Rain = 0
KDO2 202236Z 14005KT 37/17 A2996 RMK A01 T03720165  RH  029%=      5-min Rain = 0
KDO2 202237Z 15008KT 37/16 A2996 RMK A01 T03730164  RH  029%=      5-min Rain = 0
KDO2 202238Z 16008KT 37/15 A2996 RMK A01 T03740153  RH  027%=      5-min Rain = 0
KDO2 202239Z 15007KT 37/15 A2996 RMK A01 T03730154  RH  027%=      5-min Rain = 0
KDO2 202240Z 14008KT 37/16 A2996 RMK A01 T03720155  RH  028%=      5-min Rain = 0
KDO2 202241Z 13009KT 37/16 A2996 RMK A01 T03720156  RH  028%=      5-min Rain = 0
KDO2 202242Z 11010KT 37/15 A2996 RMK A01 T03720152  RH  027%=      5-min Rain = 0
KDO2 202243Z 11009KT 37/15 A2996 RMK A01 T03720152  RH  027%=      5-min Rain = 0
KDO2 202244Z 10011KT 37/15 A2996 RMK A01 T03730153  RH  027%=      5-min Rain = 0
KDO2 202245Z 09009KT 37/15 A2996 RMK A01 T03740151  RH  027%=      5-min Rain = 0
KDO2 202246Z 10009KT 37/15 A2996 RMK A01 T03740151  RH  027%=      5-min Rain = 0
KDO2 202247Z 10011KT 37/16 A2996 RMK A01 T03730157  RH  028%=      5-min Rain = 0
KDO2 202248Z 10009KT 37/16 A2996 RMK A01 T03730155  RH  027%=      5-min Rain = 0
KDO2 202249Z 12008KT 37/15 A2996 RMK A01 T03720153  RH  027%=      5-min Rain = 0
KDO2 202250Z 12006KT 37/16 A2996 RMK A01 T03710157  RH  028%=      5-min Rain = 0
KDO2 202251Z 10009KT 37/16 A2996 RMK A01 T03720156  RH  028%=      5-min Rain = 0
KDO2 202252Z 10008KT 37/15 A2996 RMK A01 T03720153  RH  027%=      5-min Rain = 0
KDO2 202253Z 12007KT 37/16 A2996 RMK A01 T03720157  RH  028%=      5-min Rain = 0
KDO2 202254Z 11007KT 37/15 A2996 RMK A01 T03720153  RH  027%=      5-min Rain = 0
KDO2 202255Z 11010KT 37/15 A2996 RMK A01 T03710154  RH  028%=      5-min Rain = 0
KDO2 202256Z 11010KT 37/15 A2996 RMK A01 T03700153  RH  028%=      5-min Rain = 0
KDO2 202257Z 12010KT 37/15 A2996 RMK A01 T03680152  RH  028%=      5-min Rain = 0
KDO2 202258Z 13010KT 37/15 A2996 RMK A01 T03680152  RH  028%=      5-min Rain = 0
KDO2 202259Z 11008KT 37/16 A2996 RMK A01 T03690155  RH  028%=      5-min Rain = 0
KDO2 202300Z 10013KT 37/15 A2996 RMK A01 T03720154  RH  028%=      5-min Rain = 0
KDO2 202301Z 10013KT 37/15 A2996 RMK A01 T03730153  RH  027%=      5-min Rain = 0
KDO2 202302Z 11011KT 37/15 A2996 RMK A01 T03720154  RH  028%=      5-min Rain = 0
KDO2 202303Z 11011KT 37/16 A2996 RMK A01 T03710155  RH  028%=      5-min Rain = 0
KDO2 202304Z 11009KT 37/15 A2996 RMK A01 T03710152  RH  027%=      5-min Rain = 0
KDO2 202305Z 10008KT 37/15 A2996 RMK A01 T03710151  RH  027%=      5-min Rain = 0
KDO2 202306Z 10007KT 37/15 A2996 RMK A01 T03710152  RH  027%=      5-min Rain = 0
KDO2 202307Z 10006KT 37/15 A2996 RMK A01 T03700153  RH  028%=      5-min Rain = 0
KDO2 202308Z 11009KT 37/16 A2996 RMK A01 T03690156  RH  028%=      5-min Rain = 0
KDO2 202309Z 14007KT 37/15 A2996 RMK A01 T03670154  RH  028%=      5-min Rain = 0
KDO2 202310Z 14007KT 37/16 A2996 RMK A01 T03670158  RH  029%=      5-min Rain = 0
KDO2 202311Z 14006KT 37/16 A2996 RMK A01 T03680162  RH  030%=      5-min Rain = 0
KDO2 202312Z 15007KT 37/16 A2996 RMK A01 T03690161  RH  029%=      5-min Rain = 0
KDO2 202313Z 14011KT 37/16 A2996 RMK A01 T03710163  RH  029%=      5-min Rain = 0
KDO2 202314Z 16010KT 37/16 A2996 RMK A01 T03700160  RH  029%=      5-min Rain = 0
KDO2 202315Z 15006KT 37/16 A2996 RMK A01 T03690156  RH  028%=      5-min Rain = 0
KDO2 202316Z 16007KT 37/16 A2996 RMK A01 T03680159  RH  029%=      5-min Rain = 0
KDO2 202317Z 15010KT 37/16 A2996 RMK A01 T03680159  RH  029%=      5-min Rain = 0
KDO2 202318Z 13008KT 37/16 A2996 RMK A01 T03680159  RH  029%=      5-min Rain = 0
KDO2 202319Z 12010KT 37/16 A2996 RMK A01 T03690158  RH  029%=      5-min Rain = 0
KDO2 202320Z 12012KT 37/16 A2996 RMK A01 T03690157  RH  028%=      5-min Rain = 0
KDO2 202321Z 12011KT 37/16 A2996 RMK A01 T03690156  RH  028%=      5-min Rain = 0
KDO2 202322Z 12008KT 37/16 A2996 RMK A01 T03670157  RH  029%=      5-min Rain = 0
KDO2 202323Z 12008KT 37/16 A2996 RMK A01 T03660155  RH  029%=      5-min Rain = 0
KDO2 202324Z 13008KT 37/16 A2996 RMK A01 T03660157  RH  029%=      5-min Rain = 0
KDO2 202325Z 12007KT 37/16 A2996 RMK A01 T03650156  RH  029%=      5-min Rain = 0
KDO2 202326Z 12005KT 37/16 A2996 RMK A01 T03650155  RH  029%=      5-min Rain = 0
KDO2 202327Z 13005KT 37/16 A2996 RMK A01 T03660159  RH  029%=      5-min Rain = 0
KDO2 202328Z 15005KT 37/16 A2996 RMK A01 T03660159  RH  029%=      5-min Rain = 0
KDO2 202329Z 14009KT 37/16 A2996 RMK A01 T03660160  RH  030%=      5-min Rain = 0
KDO2 202330Z 14010KT 37/15 A2996 RMK A01 T03660154  RH  028%=      5-min Rain = 0
KDO2 202331Z 14009KT 37/15 A2996 RMK A01 T03650154  RH  029%=      5-min Rain = 0
KDO2 202332Z 15007KT 37/16 A2996 RMK A01 T03650160  RH  030%=      5-min Rain = 0
KDO2 202333Z 15009KT 37/16 A2995 RMK A01 T03650161  RH  030%=      5-min Rain = 0
KDO2 202334Z 15009KT 37/16 A2995 RMK A01 T03650158  RH  029%=      5-min Rain = 0
KDO2 202335Z 15007KT 37/16 A2995 RMK A01 T03650160  RH  030%=      5-min Rain = 0
KDO2 202336Z 13005KT 37/17 A2995 RMK A01 T03650166  RH  031%=      5-min Rain = 0
KDO2 202337Z 13005KT 36/16 A2995 RMK A01 T03640160  RH  030%=      5-min Rain = 0
KDO2 202338Z 14004KT 37/16 A2995 RMK A01 T03650161  RH  030%=      5-min Rain = 0
KDO2 202339Z 13005KT 37/16 A2995 RMK A01 T03650163  RH  030%=      5-min Rain = 0
KDO2 202340Z 14008KT 37/16 A2995 RMK A01 T03660164  RH  030%=      5-min Rain = 0
KDO2 202341Z 14008KT 37/16 A2995 RMK A01 T03660160  RH  030%=      5-min Rain = 0
KDO2 202342Z 14008KT 37/16 A2995 RMK A01 T03650159  RH  030%=      5-min Rain = 0
KDO2 202343Z 14008KT 37/16 A2995 RMK A01 T03650156  RH  029%=      5-min Rain = 0
KDO2 202344Z 15006KT 36/16 A2995 RMK A01 T03640156  RH  029%=      5-min Rain = 0
KDO2 202345Z 15006KT 36/16 A2995 RMK A01 T03640162  RH  030%=      5-min Rain = 0
KDO2 202346Z 16007KT 36/16 A2995 RMK A01 T03640161  RH  030%=      5-min Rain = 0
KDO2 202347Z 15007KT 36/16 A2995 RMK A01 T03640158  RH  030%=      5-min Rain = 0
KDO2 202348Z 13007KT 36/16 A2995 RMK A01 T03640159  RH  030%=      5-min Rain = 0
KDO2 202349Z 12008KT 36/16 A2995 RMK A01 T03640159  RH  030%=      5-min Rain = 0
KDO2 202350Z 12009KT 36/16 A2995 RMK A01 T03630157  RH  029%=      5-min Rain = 0
KDO2 202351Z 10010G15KT 36/16 A2995 RMK A01 T03640161  RH  030%=      5-min Rain = 0
KDO2 202352Z 11013KT 36/16 A2995 RMK A01 T03640159  RH  030%=      5-min Rain = 0
KDO2 202353Z 11014KT 36/16 A2995 RMK A01 T03640159  RH  030%=      5-min Rain = 0
KDO2 202354Z 11012KT 36/16 A2995 RMK A01 T03640160  RH  030%=      5-min Rain = 0
KDO2 202355Z 11013KT 36/16 A2995 RMK A01 T03640160  RH  030%=      5-min Rain = 0
KDO2 202356Z 10013KT 36/16 A2995 RMK A01 T03630157  RH  030%=      5-min Rain = 0
KDO2 202357Z 10012KT 36/16 A2995 RMK A01 T03620156  RH  029%=      5-min Rain = 0
KDO2 202358Z 10009KT 36/16 A2995 RMK A01 T03620156  RH  029%=      5-min Rain = 0
KDO2 202359Z 10009KT 36/16 A2995 RMK A01 T03620159  RH  030%=      5-min Rain = 0
KDO2 210000Z 10010KT 36/16 A2995 RMK A01 T03620162  RH  030%=      5-min Rain = 0
KDO2 210001Z 10013KT 36/16 A2995 RMK A01 T03620158  RH  030%=      5-min Rain = 0
KDO2 210002Z 11012KT 36/16 A2995 RMK A01 T03620157  RH  030%=      5-min Rain = 0
KDO2 210003Z 10010KT 36/16 A2995 RMK A01 T03620158  RH  030%=      5-min Rain = 0
KDO2 210004Z 11010KT 36/16 A2995 RMK A01 T03620160  RH  030%=      5-min Rain = 0
KDO2 210005Z 11011KT 36/16 A2995 RMK A01 T03610161  RH  030%=      5-min Rain = 0
KDO2 210006Z 12010KT 36/16 A2995 RMK A01 T03610160  RH  030%=      5-min Rain = 0
KDO2 210007Z 12010KT 36/16 A2995 RMK A01 T03610158  RH  030%=      5-min Rain = 0
KDO2 210008Z 12011KT 36/16 A2995 RMK A01 T03600159  RH  030%=      5-min Rain = 0
KDO2 210009Z 12013KT 36/16 A2995 RMK A01 T03600155  RH  030%=      5-min Rain = 0
KDO2 210010Z 12013KT 36/16 A2995 RMK A01 T03590155  RH  030%=      5-min Rain = 0
KDO2 210011Z 12012KT 36/16 A2995 RMK A01 T03590157  RH  030%=      5-min Rain = 0
KDO2 210012Z 12010KT 36/16 A2995 RMK A01 T03580157  RH  030%=      5-min Rain = 0
KDO2 210013Z 13007KT 36/16 A2995 RMK A01 T03580160  RH  031%=      5-min Rain = 0
KDO2 210014Z 14011KT 36/16 A2995 RMK A01 T03570161  RH  031%=      5-min Rain = 0
KDO2 210015Z 13008KT 36/16 A2995 RMK A01 T03570158  RH  031%=      5-min Rain = 0
KDO2 210016Z 12008KT 36/16 A2995 RMK A01 T03570162  RH  031%=      5-min Rain = 0
KDO2 210017Z 13010KT 36/16 A2995 RMK A01 T03570161  RH  031%=      5-min Rain = 0
KDO2 210018Z 12009KT 36/16 A2995 RMK A01 T03560158  RH  031%=      5-min Rain = 0
KDO2 210019Z 13010KT 36/16 A2995 RMK A01 T03560161  RH  031%=      5-min Rain = 0
KDO2 210020Z 13010KT 36/16 A2995 RMK A01 T03560161  RH  031%=      5-min Rain = 0
KDO2 210021Z 12009KT 36/16 A2995 RMK A01 T03560161  RH  031%=      5-min Rain = 0
KDO2 210022Z 12008KT 36/16 A2995 RMK A01 T03560162  RH  032%=      5-min Rain = 0
KDO2 210023Z 12008KT 36/16 A2995 RMK A01 T03550162  RH  032%=      5-min Rain = 0
KDO2 210024Z 12010KT 36/16 A2995 RMK A01 T03550162  RH  032%=      5-min Rain = 0
KDO2 210025Z 13008KT 35/16 A2995 RMK A01 T03540163  RH  032%=      5-min Rain = 0
KDO2 210026Z 13010KT 35/16 A2995 RMK A01 T03540164  RH  032%=      5-min Rain = 0
KDO2 210027Z 13009KT 35/16 A2995 RMK A01 T03530163  RH  032%=      5-min Rain = 0
KDO2 210028Z 13009KT 35/16 A2995 RMK A01 T03520162  RH  032%=      5-min Rain = 0
KDO2 210029Z 13010KT 35/16 A2995 RMK A01 T03520161  RH  032%=      5-min Rain = 0
KDO2 210030Z 13008KT 35/16 A2995 RMK A01 T03520162  RH  032%=      5-min Rain = 0
KDO2 210031Z 13010KT 35/16 A2995 RMK A01 T03510161  RH  032%=      5-min Rain = 0
KDO2 210032Z 13009KT 35/16 A2995 RMK A01 T03500161  RH  033%=      5-min Rain = 0
KDO2 210033Z 13009KT 35/16 A2996 RMK A01 T03500161  RH  032%=      5-min Rain = 0
KDO2 210034Z 12008KT 35/16 A2996 RMK A01 T03490162  RH  033%=      5-min Rain = 0
KDO2 210035Z 12010KT 35/16 A2995 RMK A01 T03480160  RH  033%=      5-min Rain = 0
KDO2 210036Z 13009KT 35/16 A2996 RMK A01 T03480160  RH  033%=      5-min Rain = 0
KDO2 210037Z 13008KT 35/16 A2996 RMK A01 T03480160  RH  033%=      5-min Rain = 0
KDO2 210038Z 12008KT 35/16 A2996 RMK A01 T03470161  RH  033%=      5-min Rain = 0
KDO2 210039Z 12008KT 35/16 A2996 RMK A01 T03470161  RH  033%=      5-min Rain = 0
KDO2 210040Z 12008KT 35/16 A2996 RMK A01 T03460161  RH  033%=      5-min Rain = 0
KDO2 210041Z 12009KT 35/16 A2996 RMK A01 T03460160  RH  033%=      5-min Rain = 0
KDO2 210042Z 12009KT 35/16 A2996 RMK A01 T03460159  RH  033%=      5-min Rain = 0
KDO2 210043Z 12010KT 35/16 A2996 RMK A01 T03460159  RH  033%=      5-min Rain = 0
KDO2 210044Z 12008KT 35/16 A2996 RMK A01 T03470159  RH  033%=      5-min Rain = 0
KDO2 210045Z 12008KT 35/16 A2996 RMK A01 T03470160  RH  033%=      5-min Rain = 0
KDO2 210046Z 13009KT 35/16 A2996 RMK A01 T03470161  RH  033%=      5-min Rain = 0
KDO2 210047Z 12008KT 35/16 A2996 RMK A01 T03460161  RH  033%=      5-min Rain = 0
KDO2 210048Z 12007KT 35/16 A2996 RMK A01 T03460161  RH  033%=      5-min Rain = 0
KDO2 210049Z 12008KT 35/16 A2996 RMK A01 T03450162  RH  034%=      5-min Rain = 0
KDO2 210050Z 12008KT 35/16 A2996 RMK A01 T03450162  RH  034%=      5-min Rain = 0
KDO2 210051Z 11006KT 34/16 A2996 RMK A01 T03440162  RH  034%=      5-min Rain = 0
KDO2 210052Z 11006KT 34/16 A2996 RMK A01 T03440162  RH  034%=      5-min Rain = 0
KDO2 210053Z 11007KT 34/16 A2996 RMK A01 T03430163  RH  034%=      5-min Rain = 0
KDO2 210054Z 11007KT 34/16 A2996 RMK A01 T03420162  RH  034%=      5-min Rain = 0
KDO2 210055Z 11006KT 34/16 A2996 RMK A01 T03410163  RH  034%=      5-min Rain = 0
KDO2 210056Z 11006KT 34/16 A2996 RMK A01 T03410163  RH  035%=      5-min Rain = 0
KDO2 210057Z 12007KT 34/16 A2996 RMK A01 T03400163  RH  035%=      5-min Rain = 0
KDO2 210058Z 11007KT 34/16 A2996 RMK A01 T03400162  RH  035%=      5-min Rain = 0
KDO2 210059Z 12005KT 34/16 A2996 RMK A01 T03400162  RH  035%=      5-min Rain = 0
KDO2 210100Z 11006KT 34/16 A2996 RMK A01 T03400164  RH  035%=      5-min Rain = 0
KDO2 210101Z 11007KT 34/16 A2996 RMK A01 T03380163  RH  035%=      5-min Rain = 0
KDO2 210102Z 11006KT 34/16 A2996 RMK A01 T03380162  RH  035%=      5-min Rain = 0
KDO2 210103Z 12006KT 34/16 A2996 RMK A01 T03380162  RH  035%=      5-min Rain = 0
KDO2 210104Z 12006KT 34/16 A2996 RMK A01 T03380163  RH  035%=      5-min Rain = 0
KDO2 210105Z 12007KT 34/16 A2996 RMK A01 T03380163  RH  035%=      5-min Rain = 0
KDO2 210106Z 12007KT 34/16 A2996 RMK A01 T03370163  RH  035%=      5-min Rain = 0
KDO2 210107Z 12006KT 34/16 A2996 RMK A01 T03360162  RH  035%=      5-min Rain = 0
KDO2 210108Z 12006KT 34/16 A2996 RMK A01 T03360163  RH  036%=      5-min Rain = 0
KDO2 210109Z 11006KT 34/16 A2996 RMK A01 T03350163  RH  036%=      5-min Rain = 0
KDO2 210110Z 11006KT 33/16 A2996 RMK A01 T03340163  RH  036%=      5-min Rain = 0
KDO2 210111Z 11006KT 33/16 A2996 RMK A01 T03330163  RH  036%=      5-min Rain = 0
KDO2 210112Z 11007KT 33/16 A2996 RMK A01 T03330163  RH  036%=      5-min Rain = 0
KDO2 210113Z 13006KT 33/16 A2996 RMK A01 T03320163  RH  036%=      5-min Rain = 0
KDO2 210114Z 12006KT 33/16 A2996 RMK A01 T03320162  RH  036%=      5-min Rain = 0
KDO2 210115Z 12006KT 33/16 A2996 RMK A01 T03320162  RH  036%=      5-min Rain = 0
KDO2 210116Z 12007KT 33/16 A2996 RMK A01 T03320163  RH  036%=      5-min Rain = 0
KDO2 210117Z 12007KT 33/16 A2996 RMK A01 T03310162  RH  036%=      5-min Rain = 0
KDO2 210118Z 12007KT 33/16 A2996 RMK A01 T03310162  RH  036%=      5-min Rain = 0
KDO2 210119Z 12007KT 33/16 A2996 RMK A01 T03310162  RH  036%=      5-min Rain = 0
KDO2 210120Z 12008KT 33/16 A2997 RMK A01 T03320163  RH  036%=      5-min Rain = 0
KDO2 210121Z 12008KT 33/16 A2997 RMK A01 T03310162  RH  036%=      5-min Rain = 0
KDO2 210122Z 12007KT 33/16 A2997 RMK A01 T03320163  RH  036%=      5-min Rain = 0
KDO2 210123Z 12008KT 33/16 A2997 RMK A01 T03320163  RH  036%=      5-min Rain = 0
KDO2 210124Z 12008KT 33/16 A2997 RMK A01 T03320163  RH  036%=      5-min Rain = 0
KDO2 210125Z 12008KT 33/16 A2997 RMK A01 T03310163  RH  036%=      5-min Rain = 0
KDO2 210126Z 12008KT 33/16 A2997 RMK A01 T03320163  RH  037%=      5-min Rain = 0
KDO2 210127Z 13007KT 33/16 A2997 RMK A01 T03310164  RH  037%=      5-min Rain = 0
KDO2 210128Z 13007KT 33/16 A2997 RMK A01 T03300164  RH  037%=      5-min Rain = 0
KDO2 210129Z 13007KT 33/16 A2997 RMK A01 T03300164  RH  037%=      5-min Rain = 0
KDO2 210130Z 13007KT 33/16 A2997 RMK A01 T03290164  RH  037%=      5-min Rain = 0
KDO2 210131Z 13007KT 33/16 A2997 RMK A01 T03280164  RH  037%=      5-min Rain = 0
KDO2 210132Z 13007KT 33/16 A2997 RMK A01 T03280164  RH  038%=      5-min Rain = 0
KDO2 210133Z 13008KT 33/16 A2997 RMK A01 T03280164  RH  038%=      5-min Rain = 0
KDO2 210134Z 13007KT 33/16 A2997 RMK A01 T03270164  RH  038%=      5-min Rain = 0
KDO2 210135Z 13006KT 33/16 A2997 RMK A01 T03270164  RH  038%=      5-min Rain = 0
KDO2 210136Z 13007KT 33/17 A2997 RMK A01 T03260165  RH  038%=      5-min Rain = 0
KDO2 210137Z 13007KT 33/17 A2997 RMK A01 T03250165  RH  038%=      5-min Rain = 0
KDO2 210138Z 13007KT 33/17 A2997 RMK A01 T03250165  RH  038%=      5-min Rain = 0
KDO2 210139Z 13007KT 33/17 A2997 RMK A01 T03250165  RH  038%=      5-min Rain = 0
KDO2 210140Z 13007KT 33/17 A2997 RMK A01 T03250165  RH  038%=      5-min Rain = 0
KDO2 210141Z 13006KT 33/17 A2997 RMK A01 T03250165  RH  038%=      5-min Rain = 0
KDO2 210142Z 13007KT 32/17 A2997 RMK A01 T03240165  RH  038%=      5-min Rain = 0
KDO2 210143Z 13007KT 32/17 A2997 RMK A01 T03240165  RH  038%=      5-min Rain = 0
KDO2 210144Z 13007KT 32/17 A2997 RMK A01 T03240165  RH  038%=      5-min Rain = 0
KDO2 210145Z 13007KT 32/17 A2997 RMK A01 T03240165  RH  039%=      5-min Rain = 0
KDO2 210146Z 13007KT 32/17 A2997 RMK A01 T03230165  RH  039%=      5-min Rain = 0
KDO2 210147Z 13007KT 32/17 A2997 RMK A01 T03230165  RH  039%=      5-min Rain = 0
KDO2 210148Z 14007KT 32/17 A2997 RMK A01 T03220165  RH  039%=      5-min Rain = 0
KDO2 210149Z 13008KT 32/17 A2997 RMK A01 T03220165  RH  039%=      5-min Rain = 0
KDO2 210150Z 14007KT 32/17 A2998 RMK A01 T03220165  RH  039%=      5-min Rain = 0
KDO2 210151Z 13007KT 32/16 A2998 RMK A01 T03220164  RH  039%=      5-min Rain = 0
KDO2 210152Z 13007KT 32/17 A2998 RMK A01 T03220165  RH  039%=      5-min Rain = 0
KDO2 210153Z 13007KT 32/16 A2998 RMK A01 T03220164  RH  039%=      5-min Rain = 0
KDO2 210154Z 13007KT 32/16 A2998 RMK A01 T03210164  RH  039%=      5-min Rain = 0
KDO2 210155Z 13007KT 32/16 A2998 RMK A01 T03220164  RH  039%=      5-min Rain = 0
KDO2 210156Z 13007KT 32/16 A2998 RMK A01 T03210164  RH  039%=      5-min Rain = 0
KDO2 210157Z 13007KT 32/17 A2998 RMK A01 T03210165  RH  039%=      5-min Rain = 0
KDO2 210158Z 13007KT 32/16 A2998 RMK A01 T03210164  RH  039%=      5-min Rain = 0
KDO2 210159Z 13007KT 32/16 A2998 RMK A01 T03210164  RH  039%=      5-min Rain = 0
KDO2 210200Z 13007KT 32/16 A2998 RMK A01 T03210164  RH  039%=      5-min Rain = 0
KDO2 210201Z 13007KT 32/16 A2998 RMK A01 T03210164  RH  039%=      5-min Rain = 0
KDO2 210202Z 13007KT 32/16 A2998 RMK A01 T03200164  RH  039%=      5-min Rain = 0
KDO2 210203Z 14007KT 32/16 A2998 RMK A01 T03200164  RH  039%=      5-min Rain = 0
KDO2 210204Z 14007KT 32/16 A2998 RMK A01 T03200164  RH  039%=      5-min Rain = 0
KDO2 210205Z 13007KT 32/16 A2998 RMK A01 T03190164  RH  039%=      5-min Rain = 0
KDO2 210206Z 13007KT 32/16 A2998 RMK A01 T03190164  RH  039%=      5-min Rain = 0
KDO2 210207Z 14006KT 32/16 A2998 RMK A01 T03190164  RH  039%=      5-min Rain = 0
KDO2 210208Z 14007KT 32/16 A2998 RMK A01 T03190164  RH  040%=      5-min Rain = 0
KDO2 210209Z 14007KT 32/16 A2998 RMK A01 T03180164  RH  040%=      5-min Rain = 0
KDO2 210210Z 13007KT 32/16 A2998 RMK A01 T03170164  RH  040%=      5-min Rain = 0
KDO2 210211Z 13007KT 32/17 A2998 RMK A01 T03170165  RH  040%=      5-min Rain = 0
KDO2 210212Z 13006KT 32/16 A2998 RMK A01 T03160164  RH  040%=      5-min Rain = 0
KDO2 210213Z 13006KT 32/17 A2998 RMK A01 T03150165  RH  040%=      5-min Rain = 0
KDO2 210214Z 13007KT 32/17 A2998 RMK A01 T03150165  RH  041%=      5-min Rain = 0
KDO2 210215Z 13007KT 31/16 A2998 RMK A01 T03140164  RH  041%=      5-min Rain = 0
KDO2 210216Z 13006KT 31/16 A2998 RMK A01 T03140164  RH  041%=      5-min Rain = 0
KDO2 210217Z 13006KT 31/17 A2998 RMK A01 T03140165  RH  041%=      5-min Rain = 0
KDO2 210218Z 13006KT 31/17 A2998 RMK A01 T03140165  RH  041%=      5-min Rain = 0
KDO2 210219Z 12007KT 31/17 A2998 RMK A01 T03140165  RH  041%=      5-min Rain = 0
KDO2 210220Z 12007KT 31/17 A2999 RMK A01 T03140165  RH  041%=      5-min Rain = 0
KDO2 210221Z 12006KT 31/17 A2999 RMK A01 T03140165  RH  041%=      5-min Rain = 0
KDO2 210222Z 12006KT 31/17 A2999 RMK A01 T03130165  RH  041%=      5-min Rain = 0
KDO2 210223Z 12006KT 31/17 A2999 RMK A01 T03120165  RH  041%=      5-min Rain = 0
KDO2 210224Z 12006KT 31/17 A2999 RMK A01 T03120165  RH  041%=      5-min Rain = 0
KDO2 210225Z 12006KT 31/17 A2999 RMK A01 T03110165  RH  042%=      5-min Rain = 0
KDO2 210226Z 12006KT 31/17 A2999 RMK A01 T03110165  RH  042%=      5-min Rain = 0
KDO2 210227Z 12006KT 31/17 A2999 RMK A01 T03100165  RH  042%=      5-min Rain = 0
KDO2 210228Z 12006KT 31/17 A2999 RMK A01 T03090165  RH  042%=      5-min Rain = 0
KDO2 210229Z 12006KT 31/17 A2999 RMK A01 T03090165  RH  042%=      5-min Rain = 0
KDO2 210230Z 12006KT 31/17 A2999 RMK A01 T03080166  RH  042%=      5-min Rain = 0
KDO2 210231Z 11006KT 31/17 A2999 RMK A01 T03070166  RH  043%=      5-min Rain = 0
KDO2 210232Z 12006KT 31/17 A2999 RMK A01 T03070166  RH  043%=      5-min Rain = 0
KDO2 210233Z 12006KT 31/17 A2999 RMK A01 T03060166  RH  043%=      5-min Rain = 0
KDO2 210234Z 12006KT 31/17 A2999 RMK A01 T03050166  RH  043%=      5-min Rain = 0
KDO2 210235Z 12006KT 30/17 A2999 RMK A01 T03040166  RH  043%=      5-min Rain = 0
KDO2 210236Z 12007KT 30/17 A2999 RMK A01 T03030166  RH  044%=      5-min Rain = 0
KDO2 210237Z 13006KT 30/17 A2999 RMK A01 T03030165  RH  044%=      5-min Rain = 0
KDO2 210238Z 13006KT 30/17 A2999 RMK A01 T03030166  RH  044%=      5-min Rain = 0
KDO2 210239Z 13006KT 30/17 A2999 RMK A01 T03030166  RH  044%=      5-min Rain = 0
KDO2 210240Z 14006KT 30/17 A2999 RMK A01 T03030166  RH  044%=      5-min Rain = 0
KDO2 210241Z 14006KT 30/17 A2999 RMK A01 T03030166  RH  044%=      5-min Rain = 0
KDO2 210242Z 14006KT 30/17 A2999 RMK A01 T03030166  RH  044%=      5-min Rain = 0
KDO2 210243Z 14006KT 30/17 A2999 RMK A01 T03030166  RH  044%=      5-min Rain = 0
KDO2 210244Z 14006KT 30/17 A2999 RMK A01 T03030166  RH  044%=      5-min Rain = 0
KDO2 210245Z 14006KT 30/17 A2999 RMK A01 T03030167  RH  044%=      5-min Rain = 0
KDO2 210246Z 14006KT 30/17 A2999 RMK A01 T03020167  RH  044%=      5-min Rain = 0
KDO2 210247Z 14006KT 30/17 A2999 RMK A01 T03020167  RH  044%=      5-min Rain = 0
KDO2 210248Z 14006KT 30/17 A2999 RMK A01 T03020167  RH  044%=      5-min Rain = 0
KDO2 210249Z 13006KT 30/17 A2999 RMK A01 T03020167  RH  044%=      5-min Rain = 0
KDO2 210250Z 13006KT 30/17 A2999 RMK A01 T03020167  RH  044%=      5-min Rain = 0
KDO2 210251Z 13006KT 30/17 A2999 RMK A01 T03010167  RH  044%=      5-min Rain = 0
KDO2 210252Z 13005KT 30/17 A2999 RMK A01 T03000167  RH  045%=      5-min Rain = 0
KDO2 210253Z 14005KT 30/17 A2999 RMK A01 T03000167  RH  045%=      5-min Rain = 0
KDO2 210254Z 14005KT 30/17 A2999 RMK A01 T02990167  RH  045%=      5-min Rain = 0
KDO2 210255Z 14005KT 30/17 A2999 RMK A01 T02990167  RH  045%=      5-min Rain = 0
KDO2 210256Z 14005KT 30/17 A2999 RMK A01 T02980167  RH  045%=      5-min Rain = 0
KDO2 210257Z 14005KT 30/17 A2999 RMK A01 T02980167  RH  045%=      5-min Rain = 0
KDO2 210258Z 14005KT 30/17 A2999 RMK A01 T02970168  RH  046%=      5-min Rain = 0
KDO2 210259Z 15005KT 30/17 A2999 RMK A01 T02960168  RH  046%=      5-min Rain = 0
KDO2 210300Z 15005KT 30/17 A2999 RMK A01 T02950168  RH  046%=      5-min Rain = 0
KDO2 210301Z 15005KT 30/17 A2999 RMK A01 T02950168  RH  046%=      5-min Rain = 0
KDO2 210302Z 15005KT 29/17 A2999 RMK A01 T02940169  RH  047%=      5-min Rain = 0
KDO2 210303Z 16005KT 29/17 A30 RMK A01 T02930168  RH  047%=      5-min Rain = 0
KDO2 210304Z 16005KT 29/17 A30 RMK A01 T02920168  RH  047%=      5-min Rain = 0
KDO2 210305Z 16005KT 29/17 A30 RMK A01 T02900168  RH  048%=      5-min Rain = 0
KDO2 210306Z 17005KT 29/17 A30 RMK A01 T02890168  RH  048%=      5-min Rain = 0
KDO2 210307Z 17005KT 29/17 A30 RMK A01 T02880168  RH  048%=      5-min Rain = 0
KDO2 210308Z 16005KT 29/17 A30 RMK A01 T02870168  RH  049%=      5-min Rain = 0
KDO2 210309Z 16005KT 29/17 A30 RMK A01 T02860167  RH  049%=      5-min Rain = 0
KDO2 210310Z 16005KT 29/17 A30 RMK A01 T02850167  RH  049%=      5-min Rain = 0
KDO2 210311Z 16006KT 29/17 A30 RMK A01 T02850167  RH  049%=      5-min Rain = 0
KDO2 210312Z 16006KT 29/17 A30 RMK A01 T02850168  RH  049%=      5-min Rain = 0
KDO2 210313Z 16006KT 29/17 A30 RMK A01 T02850168  RH  049%=      5-min Rain = 0
KDO2 210314Z 16006KT 29/17 A30 RMK A01 T02850168  RH  049%=      5-min Rain = 0
KDO2 210315Z 16006KT 28/17 A30 RMK A01 T02840167  RH  049%=      5-min Rain = 0
KDO2 210316Z 15006KT 28/17 A30 RMK A01 T02840168  RH  049%=      5-min Rain = 0
KDO2 210317Z 15006KT 28/17 A30 RMK A01 T02840168  RH  049%=      5-min Rain = 0
KDO2 210318Z 15006KT 28/17 A30 RMK A01 T02840168  RH  049%=      5-min Rain = 0
KDO2 210319Z 16006KT 28/17 A30 RMK A01 T02840168  RH  049%=      5-min Rain = 0
KDO2 210320Z 16006KT 28/17 A30 RMK A01 T02830168  RH  050%=      5-min Rain = 0
KDO2 210321Z 16006KT 28/17 A30 RMK A01 T02830168  RH  050%=      5-min Rain = 0
KDO2 210322Z 16005KT 28/17 A30 RMK A01 T02820168  RH  050%=      5-min Rain = 0
KDO2 210323Z 16005KT 28/17 A30 RMK A01 T02820168  RH  050%=      5-min Rain = 0
KDO2 210324Z 16005KT 28/17 A30 RMK A01 T02810169  RH  050%=      5-min Rain = 0
KDO2 210325Z 15005KT 28/17 A30 RMK A01 T02810169  RH  051%=      5-min Rain = 0
KDO2 210326Z 15005KT 28/17 A30 RMK A01 T02800169  RH  051%=      5-min Rain = 0
KDO2 210327Z 15005KT 28/17 A30 RMK A01 T02800169  RH  051%=      5-min Rain = 0
KDO2 210328Z 15006KT 28/17 A30 RMK A01 T02800170  RH  051%=      5-min Rain = 0
KDO2 210329Z 15006KT 28/17 A30 RMK A01 T02790170  RH  051%=      5-min Rain = 0
KDO2 210330Z 14005KT 28/17 A30 RMK A01 T02780170  RH  052%=      5-min Rain = 0
KDO2 210331Z 14005KT 28/17 A30 RMK A01 T02780170  RH  052%=      5-min Rain = 0
KDO2 210332Z 14005KT 28/17 A30 RMK A01 T02780170  RH  052%=      5-min Rain = 0
KDO2 210333Z 14005KT 28/17 A30 RMK A01 T02770169  RH  052%=      5-min Rain = 0
KDO2 210334Z 14005KT 28/17 A30 RMK A01 T02770169  RH  052%=      5-min Rain = 0
KDO2 210335Z 14005KT 28/17 A30 RMK A01 T02770169  RH  052%=      5-min Rain = 0
KDO2 210336Z 14005KT 28/17 A30 RMK A01 T02770168  RH  051%=      5-min Rain = 0
KDO2 210337Z 14005KT 28/17 A30 RMK A01 T02780168  RH  051%=      5-min Rain = 0
KDO2 210338Z 14005KT 28/17 A30 RMK A01 T02780168  RH  051%=      5-min Rain = 0
KDO2 210339Z 14005KT 28/17 A30 RMK A01 T02780168  RH  051%=      5-min Rain = 0
KDO2 210340Z 14005KT 28/17 A30 RMK A01 T02780168  RH  051%=      5-min Rain = 0
KDO2 210341Z 14005KT 28/17 A30 RMK A01 T02780168  RH  051%=      5-min Rain = 0
KDO2 210342Z 14005KT 28/17 A30 RMK A01 T02780168  RH  051%=      5-min Rain = 0
KDO2 210343Z 14005KT 28/17 A30 RMK A01 T02780168  RH  051%=      5-min Rain = 0
KDO2 210344Z 14005KT 28/17 A30 RMK A01 T02780168  RH  051%=      5-min Rain = 0
KDO2 210345Z 14005KT 28/17 A30 RMK A01 T02780169  RH  051%=      5-min Rain = 0
KDO2 210346Z 14005KT 28/17 A30 RMK A01 T02780169  RH  051%=      5-min Rain = 0
KDO2 210347Z 14005KT 28/17 A30 RMK A01 T02780169  RH  052%=      5-min Rain = 0
KDO2 210348Z 14005KT 28/17 A30 RMK A01 T02780169  RH  052%=      5-min Rain = 0
KDO2 210349Z 14005KT 28/17 A30 RMK A01 T02770169  RH  052%=      5-min Rain = 0
KDO2 210350Z 14005KT 28/17 A30 RMK A01 T02770169  RH  052%=      5-min Rain = 0
KDO2 210351Z 14005KT 28/17 A30 RMK A01 T02770169  RH  052%=      5-min Rain = 0
KDO2 210352Z 14006KT 28/17 A30 RMK A01 T02760169  RH  052%=      5-min Rain = 0
KDO2 210353Z 14006KT 28/17 A30 RMK A01 T02760169  RH  052%=      5-min Rain = 0
KDO2 210354Z 14006KT 28/17 A30 RMK A01 T02760169  RH  052%=      5-min Rain = 0
KDO2 210355Z 14006KT 28/17 A30 RMK A01 T02760169  RH  052%=      5-min Rain = 0
KDO2 210356Z 14006KT 28/17 A3001 RMK A01 T02760169  RH  052%=      5-min Rain = 0
KDO2 210357Z 14005KT 28/17 A3001 RMK A01 T02750169  RH  052%=      5-min Rain = 0
KDO2 210358Z 15005KT 28/17 A3001 RMK A01 T02750169  RH  052%=      5-min Rain = 0
KDO2 210359Z 15005KT 27/17 A3001 RMK A01 T02740169  RH  052%=      5-min Rain = 0
KDO2 210400Z 15005KT 27/17 A3001 RMK A01 T02740169  RH  053%=      5-min Rain = 0
KDO2 210401Z 15005KT 27/17 A3001 RMK A01 T02740169  RH  053%=      5-min Rain = 0
KDO2 210402Z 15005KT 27/17 A3001 RMK A01 T02730169  RH  053%=      5-min Rain = 0
KDO2 210403Z 15005KT 27/17 A3001 RMK A01 T02730170  RH  053%=      5-min Rain = 0
KDO2 210404Z 15005KT 27/17 A3001 RMK A01 T02720170  RH  054%=      5-min Rain = 0
KDO2 210405Z 15004KT 27/17 A3001 RMK A01 T02710170  RH  054%=      5-min Rain = 0
KDO2 210406Z 16004KT 27/17 A3001 RMK A01 T02700170  RH  054%=      5-min Rain = 0
KDO2 210407Z 16004KT 27/17 A3001 RMK A01 T02690170  RH  055%=      5-min Rain = 0
KDO2 210408Z 16004KT 27/17 A3001 RMK A01 T02690170  RH  055%=      5-min Rain = 0
KDO2 210409Z 16005KT 27/17 A3001 RMK A01 T02680170  RH  055%=      5-min Rain = 0
KDO2 210410Z 15005KT 27/17 A3001 RMK A01 T02680169  RH  055%=      5-min Rain = 0
KDO2 210411Z 15005KT 27/17 A3001 RMK A01 T02680170  RH  055%=      5-min Rain = 0
KDO2 210412Z 15004KT 27/17 A3001 RMK A01 T02680170  RH  055%=      5-min Rain = 0
KDO2 210413Z 15004KT 27/17 A3001 RMK A01 T02680170  RH  055%=      5-min Rain = 0
KDO2 210414Z 15004KT 27/17 A3001 RMK A01 T02680171  RH  055%=      5-min Rain = 0
KDO2 210415Z 15004KT 27/17 A3001 RMK A01 T02680171  RH  055%=      5-min Rain = 0
KDO2 210416Z 14004KT 27/17 A3001 RMK A01 T02680171  RH  055%=      5-min Rain = 0
KDO2 210417Z 14004KT 27/17 A3001 RMK A01 T02680170  RH  055%=      5-min Rain = 0
KDO2 210418Z 15004KT 27/17 A3001 RMK A01 T02670170  RH  055%=      5-min Rain = 0
KDO2 210419Z 15004KT 27/17 A3001 RMK A01 T02680171  RH  055%=      5-min Rain = 0
KDO2 210420Z 15004KT 27/17 A3001 RMK A01 T02670171  RH  056%=      5-min Rain = 0
KDO2 210421Z 15004KT 27/17 A3001 RMK A01 T02670171  RH  056%=      5-min Rain = 0
KDO2 210422Z 16004KT 27/17 A3001 RMK A01 T02670170  RH  055%=      5-min Rain = 0
KDO2 210423Z 16004KT 27/17 A3001 RMK A01 T02670170  RH  055%=      5-min Rain = 0
KDO2 210424Z 16004KT 27/17 A3001 RMK A01 T02670170  RH  055%=      5-min Rain = 0
KDO2 210425Z 16004KT 27/17 A3001 RMK A01 T02670169  RH  055%=      5-min Rain = 0
KDO2 210426Z 16004KT 27/17 A3001 RMK A01 T02670169  RH  055%=      5-min Rain = 0
KDO2 210427Z 16004KT 27/17 A3001 RMK A01 T02680169  RH  055%=      5-min Rain = 0
KDO2 210428Z 15004KT 27/17 A3001 RMK A01 T02680170  RH  055%=      5-min Rain = 0
KDO2 210429Z 15004KT 27/17 A3001 RMK A01 T02680169  RH  055%=      5-min Rain = 0
KDO2 210430Z 15005KT 27/17 A3001 RMK A01 T02680170  RH  055%=      5-min Rain = 0
KDO2 210431Z 15005KT 27/17 A3001 RMK A01 T02680170  RH  055%=      5-min Rain = 0
KDO2 210432Z 15005KT 27/17 A3001 RMK A01 T02670171  RH  056%=      5-min Rain = 0
KDO2 210433Z 15005KT 27/17 A3001 RMK A01 T02670171  RH  056%=      5-min Rain = 0
KDO2 210434Z 15005KT 27/17 A3001 RMK A01 T02650171  RH  056%=      5-min Rain = 0
KDO2 210435Z 15005KT 27/17 A3001 RMK A01 T02650171  RH  056%=      5-min Rain = 0
KDO2 210436Z 15005KT 26/17 A3001 RMK A01 T02640170  RH  056%=      5-min Rain = 0
KDO2 210437Z 15005KT 26/17 A3001 RMK A01 T02640170  RH  056%=      5-min Rain = 0
KDO2 210438Z 15005KT 26/17 A3001 RMK A01 T02640170  RH  056%=      5-min Rain = 0
KDO2 210439Z 15005KT 26/17 A3001 RMK A01 T02630169  RH  056%=      5-min Rain = 0
KDO2 210440Z 15005KT 26/17 A3001 RMK A01 T02630169  RH  056%=      5-min Rain = 0
KDO2 210441Z 15005KT 26/17 A3001 RMK A01 T02640169  RH  056%=      5-min Rain = 0
KDO2 210442Z 14006KT 26/17 A3001 RMK A01 T02640168  RH  056%=      5-min Rain = 0
KDO2 210443Z 14005KT 26/17 A3001 RMK A01 T02630168  RH  056%=      5-min Rain = 0
KDO2 210444Z 14006KT 26/17 A3001 RMK A01 T02630167  RH  055%=      5-min Rain = 0
KDO2 210445Z 15006KT 26/17 A3001 RMK A01 T02640167  RH  055%=      5-min Rain = 0
KDO2 210446Z 14006KT 27/17 A3001 RMK A01 T02650167  RH  055%=      5-min Rain = 0
KDO2 210447Z 15006KT 27/17 A3001 RMK A01 T02660167  RH  054%=      5-min Rain = 0
KDO2 210448Z 15006KT 27/17 A3001 RMK A01 T02670167  RH  054%=      5-min Rain = 0
KDO2 210449Z 15006KT 27/17 A3001 RMK A01 T02680167  RH  054%=      5-min Rain = 0
KDO2 210450Z 15006KT 27/17 A3001 RMK A01 T02680167  RH  054%=      5-min Rain = 0
KDO2 210451Z 15006KT 27/17 A3001 RMK A01 T02690167  RH  054%=      5-min Rain = 0
KDO2 210452Z 15006KT 27/17 A3001 RMK A01 T02690167  RH  054%=      5-min Rain = 0
KDO2 210453Z 15005KT 27/17 A3001 RMK A01 T02690167  RH  054%=      5-min Rain = 0
KDO2 210454Z 15005KT 27/17 A3001 RMK A01 T02690168  RH  054%=      5-min Rain = 0
KDO2 210455Z 15005KT 27/17 A3001 RMK A01 T02690168  RH  054%=      5-min Rain = 0
KDO2 210456Z 15005KT 27/17 A3001 RMK A01 T02680168  RH  054%=      5-min Rain = 0
KDO2 210457Z 15005KT 27/17 A3001 RMK A01 T02670168  RH  055%=      5-min Rain = 0
KDO2 210458Z 15005KT 27/17 A3001 RMK A01 T02660168  RH  055%=      5-min Rain = 0
KDO2 210459Z 15005KT 27/17 A3001 RMK A01 T02660168  RH  055%=      5-min Rain = 0

Page generated in 0.0721 seconds.